FR7124 / EI-EMB 7700 Squawk Report (15th of December, 2018)

Aircraft B738 Reg No. EI-EMB Age 8 years old
Model 737 Jet engines 2 First flight 31-03-10
Registered 20-04-10 Rollout 24-03-10 Delivered 21-04-10
Construction No. 38511 Line No. 3241 Series 8AS
ADSHEX 4CA84A Airline name Ryanair Owner N/A
Airfield based Dublin~Co Dublin~EI First tracked 2017-07-13 10:20:00

Flight history for EI-EMB

Route Flight No Date Playback
Bristol (BRS) - Malaga (AGP) FR8121 2019-01-19 20:09:00
Malaga (AGP) - Bristol (BRS) FR8122 2019-01-19 16:57:00
Dublin (DUB) - Malaga (AGP) FR7044 2019-01-19 14:37:00
Riga Intl (RIX) - Dublin (DUB) FR1977 2019-01-19 00:03:00
Dublin (DUB) - Riga Intl (RIX) FR1976 2019-01-18 21:23:00
Glasgow (GLA) - Dublin (DUB) FR5773 2019-01-18 17:35:00
Dublin (DUB) - Glasgow (GLA) FR5774 2019-01-18 15:59:00
Ciampino (CIA) - Dublin (DUB) FR9431 2019-01-18 13:21:00
Dublin (DUB) - Ciampino (CIA) FR9432 2019-01-18 09:25:00
Menara (RAK) - Dublin (DUB) FR7379 2019-01-18 06:51:00
Dublin (DUB) - Menara (RAK) FR7378 2019-01-17 19:30:00
Luxembourg (LUX) - Dublin (DUB) FR1949 2019-01-17 14:07:00
Dublin (DUB) - Luxembourg (LUX) FR1948 2019-01-17 11:49:00
Liverpool (LPL) - Dublin (DUB) FR443 2019-01-17 09:02:00
Dublin (DUB) - Liverpool (LPL) FR442 2019-01-17 08:33:00
Edinburgh (EDI) - Dublin (DUB) FR819 2019-01-15 22:32:00
Dublin (DUB) - Edinburgh (EDI) FR818 2019-01-15 21:42:00
Schiphol (AMS) - Dublin (DUB) FR3105 2019-01-15 20:07:00
Dublin (DUB) - Schiphol (AMS) FR3104 2019-01-15 17:32:00
Faro (FAO) - Dublin (DUB) FR7033 2019-01-15 15:28:00
Time Lat Lon Altitude Heading Speed Vertical Rate
2018-12-15 08:29:06 GMT 53.445053 -6.267857 850 156 119 -768
2018-12-15 08:29:01 GMT 53.447708 -6.269819 900 156 119 -768
2018-12-15 08:28:51 GMT 53.452862 -6.273516 1,025 156 117 -576
2018-12-15 08:28:40 GMT 53.457935 -6.277232 1,125 156 113 -512
2018-12-15 08:28:30 GMT 53.462593 -6.280625 1,225 156 106 -576
2018-12-15 08:28:19 GMT 53.467667 -6.284258 1,350 157 104 -512
2018-12-15 08:28:09 GMT 53.472229 -6.287411 1,425 156 105 -704
2018-12-15 08:28:00 GMT 53.476231 -6.290400 1,525 155 107 -640
2018-12-15 08:27:44 GMT 53.483368 -6.295794 1,675 156 102 -576
2018-12-15 08:27:34 GMT 53.487823 -6.299124 1,775 156 104 -640
2018-12-15 08:27:24 GMT 53.492111 -6.302150 1,875 157 107 -448
2018-12-15 08:27:14 GMT 53.497055 -6.305603 1,975 156 109 -576
2018-12-15 08:27:04 GMT 53.501556 -6.308899 2,075 157 107 -640
2018-12-15 08:26:54 GMT 53.506073 -6.312273 2,175 156 104 -512
2018-12-15 08:26:43 GMT 53.510834 -6.315648 2,250 156 103 -640
2018-12-15 08:26:29 GMT 53.517105 -6.320208 2,350 156 107 -384
2018-12-15 08:26:23 GMT 53.519802 -6.322228 2,400 155 107 -128
2018-12-15 08:26:20 GMT 53.521545 -6.323574 2,400 156 109 128
2018-12-15 08:26:13 GMT 53.524414 -6.325621 2,400 157 108 -128
2018-12-15 08:26:03 GMT 53.529255 -6.329014 2,400 157 111 64
2018-12-15 08:25:52 GMT 53.534042 -6.332441 2,400 157 111 256
2018-12-15 08:25:47 GMT 53.536423 -6.334022 2,400 158 113 -64
2018-12-15 08:25:38 GMT 53.541172 -6.337253 2,400 155 120 320
2018-12-15 08:25:28 GMT 53.546337 -6.340969 2,400 157 122 -128
2018-12-15 08:25:07 GMT 53.556953 -6.348320 2,375 156 123 -64
2018-12-15 08:25:01 GMT 53.560120 -6.350663 2,400 156 127 -192
2018-12-15 08:24:55 GMT 53.563477 -6.353237 2,400 154 129 -64
2018-12-15 08:24:43 GMT 53.569897 -6.358661 2,400 151 132 0
2018-12-15 08:24:33 GMT 53.575249 -6.363992 2,400 149 127 -64
2018-12-15 08:24:26 GMT 53.578949 -6.367833 2,375 147 125 -64
2018-12-15 08:24:13 GMT 53.584930 -6.374090 2,475 148 124 -960
2018-12-15 08:24:06 GMT 53.588745 -6.378113 2,575 145 126 -640
2018-12-15 08:23:56 GMT 53.593822 -6.384107 2,650 144 123 -384
2018-12-15 08:23:45 GMT 53.597687 -6.390973 2,700 114 129 -128
2018-12-15 08:23:34 GMT 53.600189 -6.400870 2,750 111 132 -448
2018-12-15 08:23:25 GMT 53.602341 -6.410209 2,825 110 138 -448
2018-12-15 08:23:18 GMT 53.603760 -6.416722 2,875 110 142 -448
2018-12-15 08:23:14 GMT 53.604717 -6.421186 2,900 109 144 -512
2018-12-15 08:23:03 GMT 53.607136 -6.432737 2,975 108 149 -512
2018-12-15 08:22:54 GMT 53.608658 -6.444266 3,075 91 166 -640
2018-12-15 08:22:47 GMT 53.607975 -6.453660 3,150 71 187 -1088
2018-12-15 08:22:42 GMT 53.606598 -6.459490 3,225 64 195 -1088
2018-12-15 08:22:33 GMT 53.601334 -6.471340 3,400 45 217 -1216
2018-12-15 08:22:28 GMT 53.597408 -6.477733 3,500 44 221 -1024
2018-12-15 08:22:23 GMT 53.593735 -6.483738 3,600 44 223 -1152
2018-12-15 08:22:17 GMT 53.589661 -6.490644 3,700 45 224 -1088
2018-12-15 08:22:12 GMT 53.586281 -6.496394 3,775 45 226 -1024
2018-12-15 08:22:02 GMT 53.578171 -6.509399 3,950 37 235 -960
2018-12-15 08:21:57 GMT 53.573410 -6.514736 4,050 28 243 -1024
2018-12-15 08:21:52 GMT 53.568359 -6.519093 4,125 26 248 -960
2018-12-15 08:21:47 GMT 53.563377 -6.523213 4,200 26 252 -1088
2018-12-15 08:21:41 GMT 53.557510 -6.528141 4,325 26 257 -1216
2018-12-15 08:21:34 GMT 53.549786 -6.534603 4,475 26 262 -1216
2018-12-15 08:21:31 GMT 53.545406 -6.538319 4,550 27 265 -1344
2018-12-15 08:21:26 GMT 53.541229 -6.541966 4,650 27 267 -1792
2018-12-15 08:21:21 GMT 53.535507 -6.546910 4,800 26 268 -1984
2018-12-15 08:21:16 GMT 53.530106 -6.551147 4,975 20 269 -2176
2018-12-15 08:21:08 GMT 53.520874 -6.556172 5,250 14 270 -2176
2018-12-15 08:21:03 GMT 53.514126 -6.559242 5,450 14 270 -2176
2018-12-15 08:21:00 GMT 53.511192 -6.560454 5,550 14 271 -2240
2018-12-15 08:20:56 GMT 53.505615 -6.562997 5,700 14 272 -2304
2018-12-15 08:20:49 GMT 53.497330 -6.566685 6,050 14 274 -2176
2018-12-15 08:20:46 GMT 53.493130 -6.568532 6,100 14 276 -1984
2018-12-15 08:20:38 GMT 53.483963 -6.572492 6,350 14 279 -1984
2018-12-15 08:20:35 GMT 53.480236 -6.574106 6,425 14 279 -2112
2018-12-15 08:20:30 GMT 53.472931 -6.577122 6,625 14 280 -1728
2018-12-15 08:20:27 GMT 53.469910 -6.578378 6,675 13 281 -1728
2018-12-15 08:20:18 GMT 53.456539 -6.583880 7,050 13 279 -2368
2018-12-15 08:20:15 GMT 53.454803 -6.584577 7,100 13 279 -2240
2018-12-15 08:20:08 GMT 53.446243 -6.587873 7,300 12 281 -1216
2018-12-15 08:20:05 GMT 53.442169 -6.589443 7,350 12 284 -512
2018-12-15 08:19:58 GMT 53.433170 -6.592928 7,400 13 288 -512
2018-12-15 08:19:55 GMT 53.428757 -6.594622 7,425 13 290 -704
2018-12-15 08:19:48 GMT 53.420334 -6.597918 7,500 13 294 -640
2018-12-15 08:19:44 GMT 53.415024 -6.599958 7,550 13 297 -704
2018-12-15 08:19:38 GMT 53.406124 -6.603187 7,650 9 302 -768
2018-12-15 08:19:34 GMT 53.401096 -6.604237 7,675 4 304 -640
2018-12-15 08:19:28 GMT 53.392365 -6.604902 7,750 0 306 -576
2018-12-15 08:19:24 GMT 53.387283 -6.604980 7,775 0 307 -192
2018-12-15 08:19:18 GMT 53.378471 -6.605126 7,800 0 307 -128
2018-12-15 08:19:14 GMT 53.372280 -6.605126 7,800 0 306 -128
2018-12-15 08:19:08 GMT 53.363762 -6.605207 7,825 0 307 -64
2018-12-15 08:19:03 GMT 53.357525 -6.605207 7,825 0 307 -64
2018-12-15 08:18:57 GMT 53.349003 -6.605126 7,825 0 308 -576
2018-12-15 08:18:53 GMT 53.343327 -6.604964 7,875 0 308 -1856
2018-12-15 08:18:47 GMT 53.334503 -6.604824 8,100 0 307 -2816
2018-12-15 08:18:41 GMT 53.326286 -6.604641 8,300 0 308 -1600
2018-12-15 08:18:37 GMT 53.319672 -6.604588 8,375 0 317 -192
2018-12-15 08:18:31 GMT 53.311386 -6.604431 8,375 0 325 -64
2018-12-15 08:18:27 GMT 53.304657 -6.604274 8,400 0 338 -448
2018-12-15 08:18:22 GMT 53.295868 -6.604196 8,450 0 343 -1024
2018-12-15 08:18:16 GMT 53.287930 -6.604076 8,550 357 347 -1664
2018-12-15 08:18:10 GMT 53.278015 -6.602548 8,725 350 347 -1920
2018-12-15 08:18:06 GMT 53.271698 -6.600507 8,875 348 348 -1920
2018-12-15 08:18:00 GMT 53.262222 -6.596976 9,050 348 348 -2176
2018-12-15 08:17:56 GMT 53.255619 -6.594382 9,225 347 350 -1984
2018-12-15 08:17:51 GMT 53.247757 -6.591405 9,375 348 351 -1472
2018-12-15 08:17:46 GMT 53.237885 -6.587596 9,500 348 355 -1152
2018-12-15 08:17:40 GMT 53.230453 -6.584813 9,550 348 358 -1088
2018-12-15 08:17:35 GMT 53.222672 -6.581909 9,675 348 364 -1152
2018-12-15 08:17:30 GMT 53.214420 -6.578872 9,750 348 367 -1280
2018-12-15 08:17:25 GMT 53.205067 -6.575560 9,900 349 372 -1344
2018-12-15 08:17:19 GMT 53.195892 -6.572492 10,000 349 376 -1472
2018-12-15 08:17:14 GMT 53.187328 -6.569582 10,150 349 380 -1792
2018-12-15 08:17:11 GMT 53.182533 -6.567966 10,400 349 384 -2240
2018-12-15 08:17:08 GMT 53.175247 -6.565508 10,400 349 384 -2240
2018-12-15 08:17:04 GMT 53.169312 -6.563442 10,525 349 384 -2496
2018-12-15 08:17:00 GMT 53.162018 -6.560957 10,675 349 386 -2560
2018-12-15 08:16:54 GMT 53.151535 -6.557347 10,975 349 386 -2816
2018-12-15 08:16:49 GMT 53.140961 -6.553894 11,225 350 392 -2048
2018-12-15 08:16:44 GMT 53.133911 -6.551618 11,400 350 390 -2816
2018-12-15 08:16:40 GMT 53.121502 -6.547690 11,975 350 392 -2048
2018-12-15 08:16:34 GMT 53.115826 -6.545913 11,850 350 393 -1792
2018-12-15 08:16:31 GMT 53.110798 -6.544297 11,950 350 396 -1728
2018-12-15 08:16:28 GMT 53.106468 -6.543005 11,950 350 396 -1728
2018-12-15 08:16:23 GMT 53.097427 -6.540083 12,150 349 402 -1984
2018-12-15 08:16:20 GMT 53.091198 -6.538042 12,325 350 405 -2048
2018-12-15 08:16:17 GMT 53.085331 -6.536159 12,325 350 405 -2048
2018-12-15 08:16:13 GMT 53.077930 -6.533805 12,775 350 411 -2112
2018-12-15 08:16:09 GMT 53.065613 -6.529922 12,650 350 413 -2112
2018-12-15 08:16:06 GMT 53.065613 -6.529922 12,725 350 415 -2112
2018-12-15 08:16:02 GMT 53.058105 -6.527557 12,875 350 417 -2048
2018-12-15 08:15:59 GMT 53.051628 -6.525565 12,950 350 420 -1984
2018-12-15 08:15:56 GMT 53.046661 -6.524124 13,075 350 422 -1728
2018-12-15 08:15:52 GMT 53.038971 -6.521835 13,175 350 425 -1344
2018-12-15 08:15:48 GMT 53.029282 -6.518973 13,300 350 428 -1408
2018-12-15 08:15:42 GMT 53.019089 -6.515913 13,400 350 432 -1344
2018-12-15 08:15:39 GMT 53.012421 -6.513901 13,475 350 435 -1280
2018-12-15 08:15:36 GMT 53.004501 -6.511536 13,575 350 437 -1152
2018-12-15 08:15:32 GMT 52.997723 -6.509399 13,650 350 437 -1344
2018-12-15 08:15:28 GMT 52.984634 -6.505356 13,750 350 437 -1408
2018-12-15 08:15:24 GMT 52.984634 -6.505356 13,800 350 437 -1408
2018-12-15 08:15:19 GMT 52.972351 -6.501474 13,950 350 436 -1472
2018-12-15 08:15:14 GMT 52.964813 -6.499023 14,000 350 436 -1472
2018-12-15 08:15:09 GMT 52.951355 -6.494751 14,475 350 434 -1536
2018-12-15 08:15:04 GMT 52.943481 -6.492157 14,300 350 434 -1408
2018-12-15 08:15:00 GMT 52.928078 -6.487270 14,425 350 435 -1344
2018-12-15 08:14:53 GMT 52.922150 -6.485367 14,525 350 436 -1280
2018-12-15 08:14:50 GMT 52.916206 -6.483503 14,550 350 437 -1216
2018-12-15 08:14:47 GMT 52.910622 -6.481698 14,625 350 437 -1216
2018-12-15 08:14:43 GMT 52.901077 -6.478638 14,725 350 440 -1216
2018-12-15 08:14:38 GMT 52.892281 -6.475891 14,800 350 442 -1216
2018-12-15 08:14:35 GMT 52.886646 -6.474086 14,875 350 442 -1216
2018-12-15 08:14:30 GMT 52.871841 -6.469345 15,000 350 445 -832
2018-12-15 08:14:23 GMT 52.861790 -6.466160 15,050 350 444 -832
2018-12-15 08:14:20 GMT 52.854904 -6.463928 15,125 350 445 -832
2018-12-15 08:14:14 GMT 52.844421 -6.460571 15,225 350 446 -768
2018-12-15 08:14:11 GMT 52.838745 -6.458817 15,225 350 446 -768
2018-12-15 08:14:07 GMT 52.830643 -6.456223 15,475 350 446 -832
2018-12-15 08:14:02 GMT 52.819706 -6.452741 15,375 350 444 -832
2018-12-15 08:13:58 GMT 52.812881 -6.450500 15,400 350 443 -896
2018-12-15 08:13:52 GMT 52.798416 -6.445923 15,575 350 442 -896
2018-12-15 08:13:48 GMT 52.792786 -6.444168 15,550 350 443 -896
2018-12-15 08:13:45 GMT 52.783535 -6.441206 15,575 350 444 -896
2018-12-15 08:13:41 GMT 52.777901 -6.439401 15,700 350 444 -896
2018-12-15 08:13:38 GMT 52.771477 -6.437360 15,700 350 444 -896
2018-12-15 08:13:33 GMT 52.761383 -6.434174 15,775 350 445 -896
2018-12-15 08:13:29 GMT 52.753326 -6.431656 15,850 350 445 -832
2018-12-15 08:13:26 GMT 52.747269 -6.429749 15,850 350 445 -832
2018-12-15 08:13:23 GMT 52.741196 -6.427841 15,925 350 445 -832
2018-12-15 08:13:15 GMT 52.724598 -6.422607 16,050 350 445 -768
2018-12-15 08:13:12 GMT 52.718536 -6.420670 16,075 350 445 -832
2018-12-15 08:13:08 GMT 52.709656 -6.417847 16,125 350 446 -832
2018-12-15 08:13:05 GMT 52.704395 -6.416173 16,175 350 445 -896
2018-12-15 08:13:02 GMT 52.699127 -6.414490 16,200 350 445 -896
2018-12-15 08:12:55 GMT 52.683308 -6.409502 16,325 350 446 -896
2018-12-15 08:12:51 GMT 52.678024 -6.407852 16,350 350 448 -896
2018-12-15 08:12:44 GMT 52.662170 -6.402832 16,475 350 448 -768
2018-12-15 08:12:40 GMT 52.655273 -6.400681 16,525 350 448 -832
2018-12-15 08:12:34 GMT 52.641083 -6.396162 16,600 350 447 -832
2018-12-15 08:12:31 GMT 52.636196 -6.394592 16,650 350 446 -832
2018-12-15 08:12:24 GMT 52.615154 -6.388000 16,875 350 445 -832
2018-12-15 08:12:21 GMT 52.615154 -6.388000 16,775 350 445 -768
2018-12-15 08:12:14 GMT 52.600159 -6.383286 16,875 350 445 -832
2018-12-15 08:12:10 GMT 52.594528 -6.381531 16,925 350 445 -896
2018-12-15 08:12:03 GMT 52.579971 -6.376953 17,025 350 445 -832
2018-12-15 08:11:59 GMT 52.572281 -6.374503 17,075 350 445 -832
2018-12-15 08:11:55 GMT 52.563766 -6.371841 17,125 350 445 -832
2018-12-15 08:11:52 GMT 52.558136 -6.370087 17,175 350 445 -832
2018-12-15 08:11:49 GMT 52.551636 -6.368103 17,200 350 446 -832
2018-12-15 08:11:45 GMT 52.542709 -6.365280 17,275 350 446 -832
2018-12-15 08:11:42 GMT 52.538250 -6.363909 17,300 350 447 -832
2018-12-15 08:11:39 GMT 52.531357 -6.361771 17,350 350 447 -832
2018-12-15 08:11:35 GMT 52.522003 -6.358808 17,425 350 447 -768
2018-12-15 08:11:32 GMT 52.516708 -6.357193 17,450 350 447 -768
2018-12-15 08:11:29 GMT 52.511032 -6.355362 17,475 350 447 -640
2018-12-15 08:11:22 GMT 52.495979 -6.350725 17,550 350 447 -576
2018-12-15 08:11:17 GMT 52.487041 -6.347900 17,600 350 447 -576
2018-12-15 08:11:12 GMT 52.475281 -6.344223 17,650 350 447 -640
2018-12-15 08:11:08 GMT 52.468002 -6.341934 17,675 350 447 -640
2018-12-15 08:11:04 GMT 52.459438 -6.339268 17,725 350 447 -576
2018-12-15 08:11:01 GMT 52.454548 -6.337777 17,750 350 447 -576
2018-12-15 08:10:58 GMT 52.447243 -6.335502 17,775 350 447 -576
2018-12-15 08:10:54 GMT 52.439095 -6.332912 17,825 350 447 -640
2018-12-15 08:10:51 GMT 52.433414 -6.331185 17,850 350 447 -576
2018-12-15 08:10:48 GMT 52.426895 -6.329145 17,875 350 448 -576
2018-12-15 08:10:42 GMT 52.415539 -6.325614 17,925 350 448 -576
2018-12-15 08:10:37 GMT 52.406158 -6.322708 17,975 350 448 -576
2018-12-15 08:10:31 GMT 52.392681 -6.318551 18,025 350 448 -640
2018-12-15 08:10:27 GMT 52.384964 -6.316147 18,100 350 451 -1152
2018-12-15 08:10:21 GMT 52.371498 -6.311959 18,125 350 448 -1024
2018-12-15 08:10:16 GMT 52.362946 -6.309357 18,250 350 449 -1152
2018-12-15 08:10:12 GMT 52.354370 -6.306780 18,375 350 450 -1152
2018-12-15 08:10:09 GMT 52.348206 -6.304855 18,375 350 450 -1152
2018-12-15 08:10:06 GMT 52.342079 -6.303013 18,425 350 451 -1152
2018-12-15 08:10:01 GMT 52.329346 -6.299133 18,550 350 451 -1152
2018-12-15 08:09:56 GMT 52.321152 -6.296616 18,625 350 451 -1088
2018-12-15 08:09:53 GMT 52.314606 -6.294632 18,675 350 451 -1152
2018-12-15 08:09:50 GMT 52.308014 -6.292648 18,725 350 451 -1152
2018-12-15 08:09:45 GMT 52.299438 -6.289987 18,825 350 450 -1088
2018-12-15 08:09:39 GMT 52.287148 -6.286220 18,950 350 449 -1152
2018-12-15 08:09:35 GMT 52.278164 -6.283473 19,000 350 449 -1152
2018-12-15 08:09:32 GMT 52.269176 -6.280648 19,075 350 449 -1088
2018-12-15 08:09:28 GMT 52.263062 -6.278763 19,150 350 450 -1088
2018-12-15 08:09:25 GMT 52.257774 -6.277117 19,200 350 450 -1088
2018-12-15 08:09:22 GMT 52.249191 -6.274414 19,275 350 451 -1088
2018-12-15 08:09:19 GMT 52.246323 -6.273507 19,300 350 450 -1088
2018-12-15 08:09:16 GMT 52.238571 -6.271133 19,375 350 451 -1088
2018-12-15 08:09:10 GMT 52.225048 -6.266915 19,500 350 452 -1088
2018-12-15 08:09:03 GMT 52.213596 -6.263306 19,600 350 452 -1152
2018-12-15 08:08:58 GMT 52.203323 -6.260071 19,675 350 453 -1152
2018-12-15 08:08:53 GMT 52.193020 -6.256871 19,800 350 455 -1088
2018-12-15 08:08:49 GMT 52.183151 -6.253810 19,975 350 455 -1152
2018-12-15 08:08:43 GMT 52.162479 -6.247375 20,075 350 458 -1088
2018-12-15 08:08:39 GMT 52.162479 -6.247375 20,050 350 457 -1088
2018-12-15 08:08:32 GMT 52.147537 -6.242746 20,200 350 458 -1152
2018-12-15 08:08:29 GMT 52.140881 -6.240705 20,250 350 458 -1152
2018-12-15 08:08:22 GMT 52.122585 -6.235055 20,425 350 459 -1152
2018-12-15 08:08:16 GMT 52.115044 -6.232701 20,425 350 459 -1152
2018-12-15 08:08:11 GMT 52.105453 -6.229782 20,575 350 460 -1152
2018-12-15 08:08:08 GMT 52.098377 -6.227522 20,800 350 461 -1088
2018-12-15 08:08:01 GMT 52.083294 -6.222892 20,800 350 461 -1024
2018-12-15 08:07:58 GMT 52.077026 -6.221008 20,825 350 462 -960
2018-12-15 08:07:51 GMT 52.062347 -6.216457 20,950 350 462 -1024
2018-12-15 08:07:47 GMT 52.054806 -6.214181 21,000 350 462 -960
2018-12-15 08:07:40 GMT 52.038437 -6.209106 21,125 350 462 -1024
2018-12-15 08:07:37 GMT 52.034225 -6.207886 21,200 350 463 -1024
2018-12-15 08:07:30 GMT 52.019943 -6.203461 21,500 350 466 -1536
2018-12-15 08:07:27 GMT 52.011566 -6.200943 21,500 350 466 -1536
2018-12-15 08:07:20 GMT 51.997593 -6.196681 21,500 350 466 -1536
2018-12-15 08:07:16 GMT 51.990845 -6.194563 21,600 350 467 -1536
2018-12-15 08:07:09 GMT 51.974304 -6.189499 21,800 350 469 -1536
2018-12-15 08:07:06 GMT 51.969177 -6.187973 21,850 350 469 -1536
2018-12-15 08:06:58 GMT 51.949131 -6.181771 22,225 350 470 -1536
2018-12-15 08:06:52 GMT 51.938507 -6.178436 22,225 350 470 -1536
2018-12-15 08:06:49 GMT 51.932095 -6.176435 22,325 350 470 -1600
2018-12-15 08:06:46 GMT 51.926971 -6.174866 22,375 350 470 -1600
2018-12-15 08:06:42 GMT 51.917130 -6.171799 22,475 350 470 -1536
2018-12-15 08:06:37 GMT 51.903488 -6.167603 22,600 350 474 -1088
2018-12-15 08:06:32 GMT 51.895363 -6.165057 22,750 350 470 -1280
2018-12-15 08:06:26 GMT 51.881287 -6.160806 22,875 350 473 -1152
2018-12-15 08:06:21 GMT 51.873550 -6.158431 22,950 350 472 -1152
2018-12-15 08:06:18 GMT 51.866268 -6.156235 23,025 350 473 -1088
2018-12-15 08:06:15 GMT 51.850342 -6.151453 23,200 352 477 -1088
2018-12-15 08:06:11 GMT 51.850342 -6.151453 23,150 351 476 -1152
2018-12-15 08:06:07 GMT 51.842064 -6.149292 23,250 352 478 -1088
2018-12-15 08:06:04 GMT 51.835964 -6.147919 23,275 354 479 -1088
2018-12-15 08:05:58 GMT 51.820496 -6.145143 23,400 356 483 -1152
2018-12-15 08:05:55 GMT 51.814735 -6.144409 23,475 357 484 -1152
2018-12-15 08:05:51 GMT 51.806259 -6.143584 23,500 357 486 -1152
2018-12-15 08:05:47 GMT 51.797695 -6.142807 23,675 357 489 -1152
2018-12-15 08:05:44 GMT 51.792297 -6.142349 23,675 357 489 -1152
2018-12-15 08:05:38 GMT 51.776981 -6.140976 23,750 357 489 -1152
2018-12-15 08:05:35 GMT 51.767952 -6.140213 23,825 357 491 -1024
2018-12-15 08:05:27 GMT 51.750229 -6.138611 23,975 357 492 -960
2018-12-15 08:05:23 GMT 51.744350 -6.138077 24,000 357 492 -960
2018-12-15 08:05:17 GMT 51.728008 -6.136627 24,150 357 491 -960
2018-12-15 08:05:14 GMT 51.720749 -6.135941 24,175 357 491 -1024
2018-12-15 08:05:06 GMT 51.704453 -6.134415 24,300 357 489 -1024
2018-12-15 08:05:03 GMT 51.697678 -6.133786 24,400 357 490 -960
2018-12-15 08:04:53 GMT 51.675018 -6.131707 24,500 357 492 -896
2018-12-15 08:04:45 GMT 51.658676 -6.130223 24,650 357 492 -1216
2018-12-15 08:04:42 GMT 51.650036 -6.129379 24,700 357 492 -1216
2018-12-15 08:04:36 GMT 51.635925 -6.128144 24,950 357 492 -640
2018-12-15 08:04:33 GMT 51.627777 -6.127402 24,900 357 492 -896
2018-12-15 08:04:26 GMT 51.611862 -6.125870 25,000 357 492 -256
2018-12-15 08:04:22 GMT 51.604599 -6.125259 25,000 357 492 -128
2018-12-15 08:04:17 GMT 51.593262 -6.124136 25,000 357 492 -64
2018-12-15 08:04:14 GMT 51.588261 -6.123657 25,000 357 491 0
2018-12-15 08:04:05 GMT 51.564655 -6.121445 25,000 357 491 64
2018-12-15 08:03:59 GMT 51.551064 -6.120148 25,000 357 491 64
2018-12-15 08:03:55 GMT 51.541985 -6.119308 25,000 357 491 64
2018-12-15 08:03:45 GMT 51.521084 -6.117401 25,000 357 491 -64
2018-12-15 08:03:39 GMT 51.499298 -6.115417 25,000 357 491 -64
2018-12-15 08:03:34 GMT 51.488892 -6.114485 25,000 357 491 64
2018-12-15 08:03:31 GMT 51.488892 -6.114485 25,000 357 491 64
2018-12-15 08:03:24 GMT 51.473465 -6.113075 25,000 357 491 64
2018-12-15 08:03:20 GMT 51.462570 -6.112110 25,000 357 491 0
2018-12-15 08:03:16 GMT 51.455772 -6.111526 25,000 357 491 0
2018-12-15 08:03:13 GMT 51.447624 -6.110764 25,000 357 491 0
2018-12-15 08:03:09 GMT 51.438545 -6.110001 25,000 357 491 0
2018-12-15 08:03:03 GMT 51.424023 -6.108704 25,000 357 491 0
2018-12-15 08:03:00 GMT 51.419037 -6.108250 25,000 357 491 0
2018-12-15 08:02:56 GMT 51.409973 -6.107433 25,000 357 491 64
2018-12-15 08:02:52 GMT 51.400909 -6.106617 25,000 357 491 64
2018-12-15 08:02:49 GMT 51.394135 -6.106033 25,000 357 491 64
2018-12-15 08:02:44 GMT 51.383244 -6.105042 25,000 357 491 -64
2018-12-15 08:02:41 GMT 51.377335 -6.104464 25,000 357 490 0
2018-12-15 08:02:38 GMT 51.368271 -6.103648 25,000 357 490 -64
2018-12-15 08:02:32 GMT 51.354721 -6.102386 25,000 357 487 64
2018-12-15 08:02:29 GMT 51.348843 -6.101837 25,000 357 488 0
2018-12-15 08:02:22 GMT 51.332199 -6.100307 25,000 357 485 64
2018-12-15 08:02:19 GMT 51.326355 -6.099777 25,000 357 484 0
2018-12-15 08:02:13 GMT 51.313881 -6.098557 25,000 357 484 64
2018-12-15 08:02:08 GMT 51.302673 -6.097486 25,000 357 484 0
2018-12-15 08:02:03 GMT 51.290176 -6.096373 25,000 357 484 0
2018-12-15 08:01:59 GMT 51.279896 -6.095428 25,000 357 484 0
2018-12-15 08:01:51 GMT 51.263790 -6.093903 25,000 357 485 0
2018-12-15 08:01:48 GMT 51.257504 -6.093369 25,000 357 484 -64
2018-12-15 08:01:41 GMT 51.232910 -6.091177 25,000 357 484 128
2018-12-15 08:01:37 GMT 51.232910 -6.091177 25,000 357 484 128
2018-12-15 08:01:34 GMT 51.225769 -6.090509 25,000 357 484 0
2018-12-15 08:01:30 GMT 51.217239 -6.089706 25,000 357 484 0
2018-12-15 08:01:27 GMT 51.211441 -6.089172 25,000 357 484 0
2018-12-15 08:01:24 GMT 51.204300 -6.088504 25,000 357 483 64
2018-12-15 08:01:20 GMT 51.195374 -6.087688 25,000 357 482 -64
2018-12-15 08:01:15 GMT 51.181534 -6.086426 25,000 357 482 0
2018-12-15 08:01:11 GMT 51.174866 -6.085832 25,000 357 482 -64
2018-12-15 08:01:04 GMT 51.158398 -6.084290 25,000 357 482 64
2018-12-15 08:01:01 GMT 51.145477 -6.083160 25,000 357 482 -64
2018-12-15 08:00:54 GMT 51.136551 -6.082343 25,000 357 482 64
2018-12-15 08:00:50 GMT 51.128540 -6.081675 25,000 357 482 0
2018-12-15 08:00:46 GMT 51.119659 -6.080858 25,000 357 482 0
2018-12-15 08:00:43 GMT 51.112961 -6.080246 25,000 357 482 -64
2018-12-15 08:00:39 GMT 51.103138 -6.079407 25,000 357 482 -64
2018-12-15 08:00:34 GMT 51.090225 -6.078260 25,000 357 483 -64
2018-12-15 08:00:29 GMT 51.081772 -6.077499 25,000 357 483 0
2018-12-15 08:00:26 GMT 51.073288 -6.076776 25,000 357 483 0
2018-12-15 08:00:22 GMT 51.065708 -6.076050 25,000 357 483 0
2018-12-15 08:00:19 GMT 51.058136 -6.075365 25,000 357 483 0
2018-12-15 08:00:16 GMT 51.051418 -6.074829 25,000 357 483 0
2018-12-15 08:00:13 GMT 51.044724 -6.074178 25,000 357 484 0
2018-12-15 08:00:09 GMT 51.035797 -6.073435 25,000 357 502 -896
2018-12-15 08:00:05 GMT 51.021515 -6.072099 25,000 357 484 64
2018-12-15 07:59:59 GMT 51.013458 -6.071431 25,000 357 485 0
2018-12-15 07:59:55 GMT 51.005402 -6.070689 25,000 357 485 -64
2018-12-15 07:59:52 GMT 50.998676 -6.070099 25,000 357 485 0
2018-12-15 07:59:46 GMT 50.983406 -6.068726 25,000 357 485 -64
2018-12-15 07:59:42 GMT 50.975353 -6.067963 25,000 357 485 -64
2018-12-15 07:59:38 GMT 50.967728 -6.067274 25,175 357 502 -896
2018-12-15 07:59:32 GMT 50.952438 -6.065938 25,050 357 488 -1024
2018-12-15 07:59:27 GMT 50.942551 -6.065047 25,125 357 489 -1024
2018-12-15 07:59:21 GMT 50.929405 -6.063843 25,375 357 494 -1088
2018-12-15 07:59:18 GMT 50.921211 -6.063080 25,275 357 493 -1024
2018-12-15 07:59:12 GMT 50.906639 -6.061783 25,400 357 495 -1088
2018-12-15 07:59:08 GMT 50.898834 -6.061113 25,475 357 497 -1088
2018-12-15 07:59:05 GMT 50.889679 -6.060222 25,525 357 497 -1088
2018-12-15 07:59:01 GMT 50.882355 -6.059554 25,675 357 500 -896
2018-12-15 07:58:57 GMT 50.873154 -6.058737 25,650 357 499 -1024
2018-12-15 07:58:51 GMT 50.859283 -6.057401 25,750 357 501 -960
2018-12-15 07:58:47 GMT 50.850037 -6.056585 25,900 357 501 -1024
2018-12-15 07:58:40 GMT 50.835205 -6.055174 25,950 357 501 -1024
2018-12-15 07:58:37 GMT 50.826874 -6.054432 25,975 357 501 -960
2018-12-15 07:58:33 GMT 50.817627 -6.053615 26,050 357 502 -832
2018-12-15 07:58:30 GMT 50.810696 -6.053009 26,100 357 502 -832
2018-12-15 07:58:26 GMT 50.803249 -6.052322 26,125 357 501 -896
2018-12-15 07:58:23 GMT 50.795380 -6.051611 26,200 357 501 -1088
2018-12-15 07:58:20 GMT 50.788010 -6.050943 26,250 357 501 -1152
2018-12-15 07:58:16 GMT 50.778763 -6.050126 26,325 357 501 -1280
2018-12-15 07:58:13 GMT 50.772263 -6.049533 26,525 357 496 -832
2018-12-15 07:58:09 GMT 50.763016 -6.048716 26,475 357 500 -1280
2018-12-15 07:58:06 GMT 50.755161 -6.048050 26,550 357 499 -1280
2018-12-15 07:57:59 GMT 50.739517 -6.046600 26,700 357 499 -1344
2018-12-15 07:57:55 GMT 50.731232 -6.045914 26,775 357 499 -1344
2018-12-15 07:57:52 GMT 50.724289 -6.045301 26,850 357 498 -1280
2018-12-15 07:57:48 GMT 50.713257 -6.044336 26,925 357 498 -960
2018-12-15 07:57:44 GMT 50.705887 -6.043668 26,975 357 498 -832
2018-12-15 07:57:39 GMT 50.692062 -6.042480 27,050 357 498 -832
2018-12-15 07:57:34 GMT 50.683331 -6.041718 27,100 357 498 -832
2018-12-15 07:57:31 GMT 50.674160 -6.040878 27,175 358 497 -832
2018-12-15 07:57:28 GMT 50.668167 -6.040384 27,250 357 498 -832
2018-12-15 07:57:24 GMT 50.659882 -6.039662 27,250 358 497 -832
2018-12-15 07:57:19 GMT 50.648415 -6.038695 27,350 357 497 -832
2018-12-15 07:57:16 GMT 50.639694 -6.037999 27,375 358 497 -832
2018-12-15 07:57:07 GMT 50.620468 -6.036409 27,475 357 495 -832
2018-12-15 07:57:04 GMT 50.612663 -6.035725 27,525 357 495 -832
2018-12-15 07:56:58 GMT 50.598930 -6.034538 27,625 357 496 -768
2018-12-15 07:56:55 GMT 50.590256 -6.033735 27,650 357 496 -768
2018-12-15 07:56:52 GMT 50.583847 -6.033229 27,700 357 496 -768
2018-12-15 07:56:47 GMT 50.574692 -6.032361 27,750 357 495 -704
2018-12-15 07:56:43 GMT 50.565086 -6.031494 27,825 357 495 -704
2018-12-15 07:56:37 GMT 50.551353 -6.030232 27,875 357 493 -832
2018-12-15 07:56:32 GMT 50.540909 -6.029326 27,950 357 492 -960
2018-12-15 07:56:27 GMT 50.527706 -6.028154 28,100 357 491 -768
2018-12-15 07:56:22 GMT 50.517742 -6.027263 28,075 357 491 -768
2018-12-15 07:56:18 GMT 50.509598 -6.026521 28,125 357 489 -768
2018-12-15 07:56:15 GMT 50.493759 -6.025134 28,200 357 490 -768
2018-12-15 07:56:06 GMT 50.480640 -6.023922 28,300 357 488 -832
2018-12-15 07:56:01 GMT 50.470276 -6.022965 28,375 357 487 -832
2018-12-15 07:55:56 GMT 50.456818 -6.021737 28,450 357 485 -832
2018-12-15 07:55:51 GMT 50.447403 -6.020953 28,500 357 485 -768
2018-12-15 07:55:46 GMT 50.436218 -6.020002 28,650 357 485 -832
2018-12-15 07:55:43 GMT 50.417843 -6.018429 28,675 357 485 -832
2018-12-15 07:55:38 GMT 50.417843 -6.018429 28,700 357 484 -832
2018-12-15 07:55:35 GMT 50.411133 -6.017906 28,725 357 484 -832
2018-12-15 07:55:32 GMT 50.405777 -6.017472 28,750 357 483 -832
2018-12-15 07:55:28 GMT 50.397312 -6.016722 28,800 357 483 -768
2018-12-15 07:55:25 GMT 50.387054 -6.015882 28,875 357 482 -768
2018-12-15 07:55:22 GMT 50.382614 -6.015521 28,900 357 482 -768
2018-12-15 07:55:19 GMT 50.375900 -6.014940 28,925 357 482 -768
2018-12-15 07:55:14 GMT 50.364807 -6.014003 29,000 357 482 -832
2018-12-15 07:55:09 GMT 50.354576 -6.013159 29,075 358 482 -832
2018-12-15 07:55:04 GMT 50.342102 -6.012120 29,150 357 482 -768
2018-12-15 07:54:59 GMT 50.331848 -6.011328 29,200 357 483 -768
2018-12-15 07:54:54 GMT 50.318920 -6.010190 29,375 357 481 -832
2018-12-15 07:54:47 GMT 50.305161 -6.009016 29,425 357 480 -896
2018-12-15 07:54:43 GMT 50.295364 -6.008220 29,425 357 480 -896
2018-12-15 07:54:39 GMT 50.284790 -6.007209 29,500 357 478 -896
2018-12-15 07:54:35 GMT 50.279022 -6.006701 29,600 357 475 -896
2018-12-15 07:54:32 GMT 50.272430 -6.006124 29,575 357 476 -832
2018-12-15 07:54:28 GMT 50.263195 -6.005290 29,650 357 474 -896
2018-12-15 07:54:24 GMT 50.245693 -6.003657 29,750 357 474 -960
2018-12-15 07:54:20 GMT 50.245693 -6.003657 29,825 357 473 -1024
2018-12-15 07:54:17 GMT 50.239548 -6.003138 29,800 357 473 -960
2018-12-15 07:54:12 GMT 50.227753 -6.002077 29,900 357 473 -896
2018-12-15 07:54:08 GMT 50.209007 -6.000465 30,000 357 473 0
2018-12-15 07:54:03 GMT 50.209007 -6.000465 30,000 357 473 -192
2018-12-15 07:54:00 GMT 50.200699 -5.999692 30,000 357 473 0
2018-12-15 07:53:57 GMT 50.194996 -5.999203 30,000 357 473 0
2018-12-15 07:53:54 GMT 50.187561 -5.998607 30,000 357 474 -64
2018-12-15 07:53:50 GMT 50.179260 -5.997867 30,000 357 474 -64
2018-12-15 07:53:47 GMT 50.174004 -5.997422 30,000 357 474 -64
2018-12-15 07:53:43 GMT 50.161758 -5.996382 30,000 357 474 0
2018-12-15 07:53:40 GMT 50.156498 -5.995937 30,000 357 473 0
2018-12-15 07:53:37 GMT 50.151237 -5.995492 30,000 357 473 0
2018-12-15 07:53:33 GMT 50.142059 -5.994704 30,000 357 473 0
2018-12-15 07:53:29 GMT 50.133316 -5.993982 30,000 357 473 0
2018-12-15 07:53:26 GMT 50.128521 -5.993562 30,000 357 473 0
2018-12-15 07:53:23 GMT 50.120224 -5.992825 30,000 357 473 0
2018-12-15 07:53:19 GMT 50.111061 -5.992003 30,000 357 473 0
2018-12-15 07:53:16 GMT 50.105804 -5.991557 30,000 357 473 0
2018-12-15 07:53:12 GMT 50.097050 -5.990815 30,000 357 473 0
2018-12-15 07:53:09 GMT 50.089645 -5.990151 30,000 357 473 0
2018-12-15 07:53:06 GMT 50.083084 -5.989627 30,000 357 473 0
2018-12-15 07:53:03 GMT 50.075684 -5.988922 30,000 357 472 0
2018-12-15 07:52:59 GMT 50.067398 -5.988217 30,000 357 472 0
2018-12-15 07:52:56 GMT 50.061298 -5.987697 30,000 357 472 0
2018-12-15 07:52:51 GMT 50.051708 -5.986807 30,000 357 472 0
2018-12-15 07:52:48 GMT 50.044281 -5.986176 30,000 357 472 0
2018-12-15 07:52:45 GMT 50.038628 -5.985693 30,000 357 472 0
2018-12-15 07:52:42 GMT 50.030762 -5.985025 30,000 357 472 0
2018-12-15 07:52:38 GMT 50.022057 -5.984208 30,000 357 472 0
2018-12-15 07:52:35 GMT 50.015957 -5.983689 30,000 357 472 0
2018-12-15 07:52:28 GMT 50.000271 -5.982353 30,000 357 472 0
2018-12-15 07:52:25 GMT 49.993744 -5.981767 30,000 357 472 0
2018-12-15 07:52:21 GMT 49.982857 -5.980868 30,000 357 472 0
2018-12-15 07:52:18 GMT 49.977173 -5.980393 30,000 357 472 0
2018-12-15 07:52:14 GMT 49.968891 -5.979754 30,000 357 472 0
2018-12-15 07:52:11 GMT 49.963257 -5.979309 30,000 357 472 0
2018-12-15 07:52:07 GMT 49.954975 -5.978567 30,000 357 471 -64
2018-12-15 07:52:03 GMT 49.946686 -5.977864 30,000 357 471 -128
2018-12-15 07:51:56 GMT 49.931900 -5.976635 30,000 357 471 64
2018-12-15 07:51:51 GMT 49.918430 -5.975523 30,000 357 471 64
2018-12-15 07:51:46 GMT 49.910156 -5.974828 30,000 357 471 0
2018-12-15 07:51:42 GMT 49.901905 -5.974039 30,000 357 470 -64
2018-12-15 07:51:36 GMT 49.887985 -5.972851 30,000 357 471 0
2018-12-15 07:51:33 GMT 49.880119 -5.972183 30,000 357 471 -64
2018-12-15 07:51:27 GMT 49.867538 -5.971142 30,000 357 471 0
2018-12-15 07:51:23 GMT 49.858379 -5.970327 30,000 357 470 -64
2018-12-15 07:51:20 GMT 49.850555 -5.969585 30,000 357 470 64
2018-12-15 07:51:16 GMT 49.842316 -5.968901 30,000 357 470 64
2018-12-15 07:51:12 GMT 49.835358 -5.968250 30,000 357 470 128
2018-12-15 07:51:05 GMT 49.821041 -5.967061 30,000 357 471 0
2018-12-15 07:51:02 GMT 49.813221 -5.966393 30,000 357 471 -64
2018-12-15 07:50:55 GMT 49.791046 -5.964492 30,000 357 471 0
2018-12-15 07:50:51 GMT 49.791046 -5.964492 30,000 357 470 64
2018-12-15 07:50:45 GMT 49.774956 -5.963201 30,000 357 470 0
2018-12-15 07:50:41 GMT 49.768433 -5.962685 30,000 357 470 0
2018-12-15 07:50:34 GMT 49.753262 -5.961419 30,000 357 470 64
2018-12-15 07:50:30 GMT 49.745441 -5.960751 30,000 357 470 0
2018-12-15 07:50:24 GMT 49.731079 -5.959505 30,000 357 470 -64
2018-12-15 07:50:20 GMT 49.723251 -5.958854 30,000 357 470 0
2018-12-15 07:50:13 GMT 49.707642 -5.957481 30,000 357 470 -128
2018-12-15 07:50:10 GMT 49.701122 -5.956965 30,000 357 470 -64
2018-12-15 07:50:03 GMT 49.683762 -5.955481 30,025 357 470 0
2018-12-15 07:50:00 GMT 49.679432 -5.955109 30,000 357 469 0
2018-12-15 07:49:53 GMT 49.662952 -5.953773 30,025 357 469 0
2018-12-15 07:49:50 GMT 49.656464 -5.953217 30,000 357 469 0
2018-12-15 07:49:42 GMT 49.640854 -5.951916 30,000 357 469 0
2018-12-15 07:49:39 GMT 49.634369 -5.951324 30,000 357 469 0
2018-12-15 07:49:30 GMT 49.612289 -5.949458 30,000 357 469 0
2018-12-15 07:49:23 GMT 49.595810 -5.948013 30,000 357 469 0
2018-12-15 07:49:19 GMT 49.589767 -5.947507 30,000 357 469 64
2018-12-15 07:49:12 GMT 49.575027 -5.946206 30,000 357 469 -64
2018-12-15 07:49:08 GMT 49.567657 -5.945608 30,000 357 469 -64
2018-12-15 07:49:02 GMT 49.544678 -5.943676 30,000 357 470 0
2018-12-15 07:48:59 GMT 49.544678 -5.943676 30,000 357 470 -64
2018-12-15 07:48:48 GMT 49.522064 -5.941724 30,000 357 471 64
2018-12-15 07:48:41 GMT 49.507278 -5.940423 30,000 357 471 0
2018-12-15 07:48:37 GMT 49.500320 -5.939845 30,000 357 471 0
2018-12-15 07:48:31 GMT 49.477249 -5.937966 30,000 357 471 0
2018-12-15 07:48:27 GMT 49.477249 -5.937966 30,000 357 471 64
2018-12-15 07:48:17 GMT 49.455517 -5.936106 30,000 357 471 -128
2018-12-15 07:48:10 GMT 49.441132 -5.934993 30,000 357 471 -128
2018-12-15 07:48:06 GMT 49.432022 -5.934207 30,000 357 471 -64
2018-12-15 07:48:00 GMT 49.418552 -5.933123 30,025 357 470 64
2018-12-15 07:47:56 GMT 49.410278 -5.932406 30,000 357 470 0
2018-12-15 07:47:49 GMT 49.395088 -5.931172 30,000 357 469 0
2018-12-15 07:47:46 GMT 49.388580 -5.930575 30,000 357 469 64
2018-12-15 07:47:39 GMT 49.373444 -5.929292 30,000 357 468 64
2018-12-15 07:47:35 GMT 49.364365 -5.928603 30,000 357 466 0
2018-12-15 07:47:29 GMT 49.350960 -5.927485 30,000 357 467 -64
2018-12-15 07:47:26 GMT 49.344952 -5.926979 30,000 357 466 0
2018-12-15 07:47:23 GMT 49.337631 -5.926349 30,000 357 466 0
2018-12-15 07:47:19 GMT 49.329025 -5.925575 30,000 357 465 0
2018-12-15 07:47:16 GMT 49.320000 -5.924811 30,000 357 465 -64
2018-12-15 07:47:08 GMT 49.305817 -5.923673 30,000 357 464 64
2018-12-15 07:47:05 GMT 49.299820 -5.923180 30,000 357 464 64
2018-12-15 07:46:59 GMT 49.285263 -5.921913 30,000 357 463 0
2018-12-15 07:46:55 GMT 49.277573 -5.921279 30,000 357 463 0
2018-12-15 07:46:45 GMT 49.256195 -5.919518 30,000 357 462 0
2018-12-15 07:46:38 GMT 49.240860 -5.918180 30,000 357 462 0
2018-12-15 07:46:35 GMT 49.233601 -5.917511 30,000 357 462 -64
2018-12-15 07:46:32 GMT 49.228477 -5.917077 30,000 357 462 -64
2018-12-15 07:46:27 GMT 49.217789 -5.916138 30,000 357 462 0
2018-12-15 07:46:24 GMT 49.211395 -5.915632 30,000 357 462 0
2018-12-15 07:46:20 GMT 49.202877 -5.914981 30,000 358 462 0
2018-12-15 07:46:17 GMT 49.196457 -5.914447 30,000 357 462 64
2018-12-15 07:46:14 GMT 49.191795 -5.914042 30,000 357 462 0
2018-12-15 07:46:11 GMT 49.185379 -5.913532 30,000 357 461 -128
2018-12-15 07:46:07 GMT 49.175171 -5.912687 30,000 357 461 -64
2018-12-15 07:46:03 GMT 49.167915 -5.912018 30,000 357 461 -64
2018-12-15 07:46:00 GMT 49.161957 -5.911512 30,000 357 461 0
2018-12-15 07:45:56 GMT 49.153439 -5.910789 30,000 357 461 64
2018-12-15 07:45:53 GMT 49.145802 -5.910211 30,000 357 461 0
2018-12-15 07:45:50 GMT 49.139420 -5.909659 30,000 358 460 -64
2018-12-15 07:45:46 GMT 49.124084 -5.908391 30,000 358 460 0
2018-12-15 07:45:43 GMT 49.124084 -5.908391 30,000 358 460 0
2018-12-15 07:45:36 GMT 49.109215 -5.907247 30,000 358 460 64
2018-12-15 07:45:33 GMT 49.103252 -5.906741 30,000 358 460 0
2018-12-15 07:45:30 GMT 49.097763 -5.906349 30,000 358 460 0
2018-12-15 07:45:26 GMT 49.087986 -5.905513 30,000 358 460 0
2018-12-15 07:45:23 GMT 49.080349 -5.904935 30,000 357 460 0
2018-12-15 07:45:20 GMT 49.075653 -5.904518 30,000 357 460 0
2018-12-15 07:45:16 GMT 49.066757 -5.903778 30,000 357 460 0
2018-12-15 07:45:10 GMT 49.054001 -5.902766 30,000 357 460 128
2018-12-15 07:45:03 GMT 49.039124 -5.901560 30,000 357 460 -128
2018-12-15 07:45:00 GMT 49.032726 -5.901031 30,000 357 460 -64
2018-12-15 07:44:55 GMT 49.022533 -5.900236 30,000 357 460 64
2018-12-15 07:44:50 GMT 49.011452 -5.899297 30,000 357 460 -128
2018-12-15 07:44:45 GMT 49.001678 -5.898461 30,025 357 460 -768
2018-12-15 07:44:42 GMT 48.987663 -5.897273 30,100 357 461 -960
2018-12-15 07:44:39 GMT 48.987663 -5.897273 30,100 357 461 -960
2018-12-15 07:44:34 GMT 48.978699 -5.896559 30,175 358 461 -896
2018-12-15 07:44:29 GMT 48.968491 -5.895714 30,250 357 461 -960
2018-12-15 07:44:24 GMT 48.955719 -5.894658 30,325 357 461 -960
2018-12-15 07:44:20 GMT 48.948898 -5.894095 30,450 357 461 -960
2018-12-15 07:44:14 GMT 48.935665 -5.893009 30,500 357 461 -960
2018-12-15 07:44:09 GMT 48.924179 -5.892123 30,575 357 461 -896
2018-12-15 07:44:04 GMT 48.914345 -5.891346 30,650 357 461 -896
2018-12-15 07:43:59 GMT 48.903313 -5.890407 30,725 357 460 -960
2018-12-15 07:43:53 GMT 48.891396 -5.889467 30,825 357 460 -960
2018-12-15 07:43:50 GMT 48.879089 -5.888390 30,925 357 460 -896
2018-12-15 07:43:43 GMT 48.870167 -5.887660 30,975 357 460 -896
2018-12-15 07:43:40 GMT 48.860413 -5.886911 31,050 357 460 -896
2018-12-15 07:43:33 GMT 48.848511 -5.885925 31,150 357 459 -896
2018-12-15 07:43:28 GMT 48.837952 -5.885058 31,225 357 457 -960
2018-12-15 07:43:21 GMT 48.823151 -5.883953 31,325 358 457 -832
2018-12-15 07:43:17 GMT 48.814304 -5.883251 31,400 358 456 -896
2018-12-15 07:43:13 GMT 48.805038 -5.882600 31,450 358 456 -896
2018-12-15 07:43:08 GMT 48.796616 -5.881950 31,550 358 454 -896
2018-12-15 07:43:03 GMT 48.783207 -5.880866 31,625 358 454 -896
2018-12-15 07:42:58 GMT 48.774830 -5.880288 31,700 358 453 -960
2018-12-15 07:42:55 GMT 48.767284 -5.879709 31,700 358 453 -960
2018-12-15 07:42:52 GMT 48.762260 -5.879348 31,750 357 451 -832
2018-12-15 07:42:46 GMT 48.749359 -5.878249 31,850 357 449 -896
2018-12-15 07:42:42 GMT 48.740250 -5.877545 31,925 357 448 -832
2018-12-15 07:42:37 GMT 48.730316 -5.876700 32,000 357 447 -832
2018-12-15 07:42:31 GMT 48.717522 -5.875589 32,075 357 445 -832
2018-12-15 07:42:26 GMT 48.708984 -5.874446 32,150 354 440 -896
2018-12-15 07:42:22 GMT 48.698547 -5.872545 32,225 353 436 -896
2018-12-15 07:42:16 GMT 48.688156 -5.870502 32,300 353 434 -960
2018-12-15 07:42:11 GMT 48.678230 -5.868506 32,375 355 435 -896
2018-12-15 07:42:05 GMT 48.667374 -5.867122 32,450 0 442 -960
2018-12-15 07:42:00 GMT 48.657188 -5.866771 32,550 1 444 -960
2018-12-15 07:41:55 GMT 48.646912 -5.867474 32,675 5 451 -960
2018-12-15 07:41:51 GMT 48.634460 -5.869587 32,700 8 456 -896
2018-12-15 07:41:45 GMT 48.624435 -5.872333 32,750 12 462 -896
2018-12-15 07:41:40 GMT 48.613991 -5.876312 32,850 16 469 -896
2018-12-15 07:41:34 GMT 48.593811 -5.887123 32,975 21 476 -896
2018-12-15 07:41:30 GMT 48.593811 -5.887123 33,025 27 486 -960
2018-12-15 07:41:24 GMT 48.581310 -5.896189 33,100 28 486 -960
2018-12-15 07:41:18 GMT 48.569626 -5.906597 33,200 32 493 -960
2018-12-15 07:41:15 GMT 48.564651 -5.911630 33,250 36 498 -960
2018-12-15 07:41:09 GMT 48.554352 -5.923321 33,325 39 504 -896
2018-12-15 07:41:05 GMT 48.546570 -5.933392 33,475 43 509 -896
2018-12-15 07:40:59 GMT 48.535904 -5.949519 33,550 48 515 -896
2018-12-15 07:40:55 GMT 48.529724 -5.960435 33,625 60 526 -960
2018-12-15 07:40:48 GMT 48.519768 -5.980827 33,675 57 524 -896
2018-12-15 07:40:45 GMT 48.515396 -5.991352 33,750 60 526 -960
2018-12-15 07:40:37 GMT 48.507526 -6.014147 33,825 64 528 -960
2018-12-15 07:40:32 GMT 48.502964 -6.030482 33,925 77 534 -896
2018-12-15 07:40:27 GMT 48.498825 -6.049453 34,000 74 533 -896
2018-12-15 07:40:23 GMT 48.496120 -6.066043 34,075 77 534 -896
2018-12-15 07:40:18 GMT 48.494385 -6.081355 34,150 83 534 -896
2018-12-15 07:40:14 GMT 48.493149 -6.102060 34,225 92 531 -960
2018-12-15 07:40:08 GMT 48.493141 -6.120541 34,300 93 530 -960
2018-12-15 07:40:01 GMT 48.494797 -6.144667 34,425 99 527 -960
2018-12-15 07:39:58 GMT 48.496445 -6.156825 34,475 105 522 -1088
2018-12-15 07:39:52 GMT 48.500309 -6.176268 34,575 110 517 -1408
2018-12-15 07:39:47 GMT 48.505142 -6.194176 34,700 114 513 -1984
2018-12-15 07:39:43 GMT 48.509293 -6.207709 34,850 115 510 -1280
2018-12-15 07:39:37 GMT 48.514694 -6.224261 34,950 117 508 -704
2018-12-15 07:39:32 GMT 48.520157 -6.239812 35,000 119 504 0
2018-12-15 07:39:27 GMT 48.526333 -6.256352 35,000 120 503 0
2018-12-15 07:39:22 GMT 48.532883 -6.272419 35,000 122 500 64
2018-12-15 07:39:16 GMT 48.539429 -6.287560 35,000 124 497 64
2018-12-15 07:39:12 GMT 48.545242 -6.300025 35,000 127 494 64
2018-12-15 07:39:06 GMT 48.552841 -6.315519 35,000 128 493 64
2018-12-15 07:39:01 GMT 48.560211 -6.329463 35,000 129 490 64
2018-12-15 07:38:55 GMT 48.569046 -6.345027 35,000 131 487 0
2018-12-15 07:38:51 GMT 48.575089 -6.355027 35,000 133 485 0
2018-12-15 07:38:45 GMT 48.584427 -6.369535 35,000 135 482 0
2018-12-15 07:38:41 GMT 48.591476 -6.379817 35,000 137 479 0
2018-12-15 07:38:36 GMT 48.600632 -6.392282 35,000 139 476 0
2018-12-15 07:38:30 GMT 48.609329 -6.403410 35,000 140 473 64
2018-12-15 07:38:24 GMT 48.618553 -6.414425 35,000 143 469 0
2018-12-15 07:38:21 GMT 48.626587 -6.423340 35,000 144 467 -64
2018-12-15 07:38:14 GMT 48.636848 -6.433941 35,000 146 463 64
2018-12-15 07:38:09 GMT 48.645126 -6.441932 35,000 148 459 0
2018-12-15 07:38:03 GMT 48.657532 -6.452848 35,000 151 456 0
2018-12-15 07:38:00 GMT 48.663437 -6.457707 35,000 152 453 0
2018-12-15 07:37:55 GMT 48.674652 -6.466158 35,000 154 449 0
2018-12-15 07:37:49 GMT 48.683670 -6.472356 35,000 156 446 64
2018-12-15 07:37:43 GMT 48.694710 -6.479259 35,000 158 442 0
2018-12-15 07:37:39 GMT 48.702347 -6.483524 35,000 160 439 0
2018-12-15 07:37:29 GMT 48.721893 -6.492990 35,000 164 432 64
2018-12-15 07:37:23 GMT 48.733429 -6.497498 35,000 166 428 64
2018-12-15 07:37:18 GMT 48.741543 -6.500148 35,000 169 423 0
2018-12-15 07:37:11 GMT 48.755367 -6.503834 35,000 170 421 0
2018-12-15 07:37:08 GMT 48.762634 -6.505385 35,000 173 416 -64
2018-12-15 07:37:02 GMT 48.773663 -6.507087 35,000 176 410 0
2018-12-15 07:36:57 GMT 48.782410 -6.507850 35,000 177 409 0
2018-12-15 07:36:51 GMT 48.793671 -6.508273 35,000 181 404 64
2018-12-15 07:36:47 GMT 48.800400 -6.508132 35,000 182 401 -64
2018-12-15 07:36:43 GMT 48.810349 -6.507448 35,000 184 398 0
2018-12-15 07:36:36 GMT 48.821732 -6.506230 35,000 185 398 0
2018-12-15 07:36:32 GMT 48.829056 -6.505385 35,000 185 398 -64
2018-12-15 07:36:26 GMT 48.839310 -6.504258 35,000 185 398 64
2018-12-15 07:36:22 GMT 48.848099 -6.503272 35,000 185 398 64
2018-12-15 07:36:16 GMT 48.858017 -6.502172 35,000 185 398 0
2018-12-15 07:36:11 GMT 48.866814 -6.501160 35,000 185 397 0
2018-12-15 07:36:06 GMT 48.877056 -6.500003 35,000 185 398 0
2018-12-15 07:36:02 GMT 48.885452 -6.499047 35,000 185 397 0
2018-12-15 07:35:55 GMT 48.896095 -6.497835 35,000 185 397 0
2018-12-15 07:35:50 GMT 48.905228 -6.496864 35,000 185 397 64
2018-12-15 07:35:46 GMT 48.914749 -6.495807 35,000 185 398 0
2018-12-15 07:35:41 GMT 48.922443 -6.494944 35,000 185 397 0
2018-12-15 07:35:35 GMT 48.933060 -6.493765 35,000 185 397 0
2018-12-15 07:35:30 GMT 48.941849 -6.492849 35,000 185 397 0
2018-12-15 07:35:24 GMT 48.953171 -6.491547 35,000 185 397 0
2018-12-15 07:35:21 GMT 48.960480 -6.490752 35,000 185 397 0
2018-12-15 07:35:14 GMT 48.972210 -6.489451 35,000 185 397 0
2018-12-15 07:35:09 GMT 48.980263 -6.488583 35,000 185 397 0
2018-12-15 07:35:04 GMT 48.990459 -6.487427 35,000 185 396 0
2018-12-15 07:34:58 GMT 48.999954 -6.486270 35,000 185 396 0
2018-12-15 07:34:53 GMT 49.009827 -6.485173 35,000 185 396 0
2018-12-15 07:34:49 GMT 49.016762 -6.484391 35,000 185 396 0
2018-12-15 07:34:43 GMT 49.027359 -6.483201 35,000 185 396 0
2018-12-15 07:34:33 GMT 49.046646 -6.480922 35,000 185 396 64
2018-12-15 07:34:22 GMT 49.065994 -6.478764 35,000 185 396 64
2018-12-15 07:34:12 GMT 49.084167 -6.476722 35,000 185 395 0
2018-12-15 07:34:07 GMT 49.094734 -6.475573 35,000 185 395 0
2018-12-15 07:34:02 GMT 49.103485 -6.474561 35,000 185 395 0
2018-12-15 07:33:59 GMT 49.109665 -6.473905 35,000 185 395 0
2018-12-15 07:33:52 GMT 49.121643 -6.472537 35,000 185 394 0
2018-12-15 07:33:48 GMT 49.128525 -6.471722 35,000 185 394 0
2018-12-15 07:33:42 GMT 49.139797 -6.470441 35,000 185 394 64
2018-12-15 07:33:37 GMT 49.147804 -6.469574 35,000 185 394 64
2018-12-15 07:33:31 GMT 49.159012 -6.468271 35,000 185 394 -64
2018-12-15 07:33:27 GMT 49.165558 -6.467567 35,000 185 393 0
2018-12-15 07:33:21 GMT 49.177505 -6.466249 35,000 185 393 0
2018-12-15 07:33:18 GMT 49.184372 -6.465454 35,000 185 393 0
2018-12-15 07:33:11 GMT 49.195614 -6.464225 35,000 185 393 0
2018-12-15 07:33:07 GMT 49.202499 -6.463412 35,000 185 393 0
2018-12-15 07:33:00 GMT 49.214420 -6.462057 35,000 185 392 0
2018-12-15 07:32:57 GMT 49.221268 -6.461299 35,000 185 392 0
2018-12-15 07:32:51 GMT 49.232849 -6.460031 35,000 185 392 0
2018-12-15 07:32:46 GMT 49.240082 -6.459186 35,000 185 392 0
2018-12-15 07:32:39 GMT 49.253082 -6.457707 35,000 185 392 0
2018-12-15 07:32:35 GMT 49.261002 -6.456862 35,000 185 392 0
2018-12-15 07:32:30 GMT 49.269699 -6.455876 35,000 185 392 64
2018-12-15 07:32:24 GMT 49.280151 -6.454685 35,000 185 392 64
2018-12-15 07:32:20 GMT 49.288113 -6.453745 35,000 185 392 0
2018-12-15 07:32:15 GMT 49.296387 -6.452848 35,000 185 392 0
2018-12-15 07:32:09 GMT 49.306873 -6.451649 35,000 185 392 64
2018-12-15 07:32:04 GMT 49.315533 -6.450637 35,000 185 391 64
2018-12-15 07:31:59 GMT 49.325226 -6.449538 35,000 185 391 64
2018-12-15 07:31:53 GMT 49.336029 -6.448270 35,000 185 391 0
2018-12-15 07:31:49 GMT 49.343994 -6.447355 35,000 185 391 0
2018-12-15 07:31:45 GMT 49.351181 -6.446510 35,000 185 391 0
2018-12-15 07:31:39 GMT 49.363064 -6.445144 35,000 185 391 0
2018-12-15 07:31:34 GMT 49.369904 -6.444397 35,000 185 391 0
2018-12-15 07:31:27 GMT 49.382172 -6.442988 35,000 185 391 0
2018-12-15 07:31:18 GMT 49.399429 -6.440946 35,000 185 391 64
2018-12-15 07:31:14 GMT 49.406616 -6.440171 35,000 185 391 64
2018-12-15 07:31:07 GMT 49.418152 -6.438833 35,000 185 390 64
2018-12-15 07:31:03 GMT 49.425339 -6.437988 35,000 185 391 0
2018-12-15 07:30:56 GMT 49.455551 -6.434519 35,000 185 390 0
2018-12-15 07:30:47 GMT 49.455551 -6.434519 35,000 185 390 -64
2018-12-15 07:30:43 GMT 49.461658 -6.433831 35,000 185 390 0
2018-12-15 07:30:36 GMT 49.474228 -6.432351 35,000 185 390 -64
2018-12-15 07:30:32 GMT 49.481026 -6.431604 35,000 185 389 64
2018-12-15 07:30:26 GMT 49.492859 -6.430254 35,000 185 389 64
2018-12-15 07:30:23 GMT 49.498249 -6.429674 35,000 185 389 0
2018-12-15 07:30:15 GMT 49.511536 -6.428158 35,000 185 390 0
2018-12-15 07:30:12 GMT 49.518723 -6.427363 35,000 185 390 0
2018-12-15 07:30:05 GMT 49.530167 -6.426062 35,000 185 390 0
2018-12-15 07:30:02 GMT 49.536667 -6.425340 35,000 185 390 0
2018-12-15 07:29:55 GMT 49.548843 -6.423966 35,000 185 390 0
2018-12-15 07:29:52 GMT 49.554253 -6.423365 35,000 185 390 0
2018-12-15 07:29:44 GMT 49.567196 -6.421880 35,000 185 390 64
2018-12-15 07:29:41 GMT 49.573288 -6.421147 35,000 185 390 0
2018-12-15 07:29:34 GMT 49.585510 -6.419702 35,000 185 390 0
2018-12-15 07:29:31 GMT 49.590546 -6.419124 35,000 185 390 0
2018-12-15 07:29:24 GMT 49.603878 -6.417500 35,000 185 391 0
2018-12-15 07:29:21 GMT 49.610001 -6.416811 35,000 185 391 64
2018-12-15 07:29:11 GMT 49.627991 -6.414715 35,000 185 391 0
2018-12-15 07:29:03 GMT 49.641678 -6.413197 35,000 185 391 0
2018-12-15 07:29:00 GMT 49.646713 -6.412619 35,000 185 391 0
2018-12-15 07:28:53 GMT 49.660065 -6.411042 35,000 185 391 0
2018-12-15 07:28:50 GMT 49.664394 -6.410522 35,000 185 391 0
2018-12-15 07:28:43 GMT 49.678436 -6.408932 35,000 185 391 0
2018-12-15 07:28:40 GMT 49.683807 -6.408296 35,000 185 391 64
2018-12-15 07:28:37 GMT 49.687775 -6.407848 35,000 185 391 64
2018-12-15 07:28:32 GMT 49.697159 -6.406764 35,000 185 391 64
2018-12-15 07:28:28 GMT 49.705078 -6.405824 35,000 185 391 64
2018-12-15 07:28:21 GMT 49.716614 -6.404523 35,000 185 392 64
2018-12-15 07:28:18 GMT 49.723469 -6.403767 35,000 185 392 0
2018-12-15 07:28:11 GMT 49.735760 -6.402357 35,000 185 392 -64
2018-12-15 07:28:08 GMT 49.742229 -6.401615 35,000 185 392 0
2018-12-15 07:28:01 GMT 49.753464 -6.400259 35,000 185 392 0
2018-12-15 07:27:57 GMT 49.761036 -6.399388 35,000 185 393 64
2018-12-15 07:27:50 GMT 49.772964 -6.398018 35,000 185 393 0
2018-12-15 07:27:47 GMT 49.779465 -6.397223 35,000 185 393 0
2018-12-15 07:27:40 GMT 49.791779 -6.395778 35,000 185 393 0
2018-12-15 07:27:37 GMT 49.799351 -6.394860 35,000 185 393 64
2018-12-15 07:27:29 GMT 49.810593 -6.393537 35,000 185 393 0
2018-12-15 07:27:26 GMT 49.817459 -6.392707 35,000 185 393 0
2018-12-15 07:27:18 GMT 49.832336 -6.391007 35,000 185 394 0
2018-12-15 07:27:15 GMT 49.837055 -6.390406 35,000 185 394 0
2018-12-15 07:27:12 GMT 49.842133 -6.389812 35,000 185 394 0
2018-12-15 07:27:07 GMT 49.853394 -6.388478 35,000 185 394 0
2018-12-15 07:27:03 GMT 49.858429 -6.387899 35,000 185 395 64
2018-12-15 07:26:59 GMT 49.866440 -6.386960 35,000 185 394 0
2018-12-15 07:26:56 GMT 49.872623 -6.386174 35,000 185 394 64
2018-12-15 07:26:49 GMT 49.883881 -6.384864 35,000 185 395 64
2018-12-15 07:26:45 GMT 49.891891 -6.383924 35,000 185 395 0
2018-12-15 07:26:38 GMT 49.906448 -6.382262 35,000 185 395 0
2018-12-15 07:26:33 GMT 49.913727 -6.381394 35,000 185 396 0
2018-12-15 07:26:27 GMT 49.924297 -6.380162 35,000 185 395 0
2018-12-15 07:26:22 GMT 49.933365 -6.379154 35,000 185 396 0
2018-12-15 07:26:18 GMT 49.940689 -6.378286 35,000 185 397 0
2018-12-15 07:26:14 GMT 49.948700 -6.377347 35,000 185 396 64
2018-12-15 07:26:11 GMT 49.952316 -6.376913 35,000 185 396 64
2018-12-15 07:26:07 GMT 49.961445 -6.375856 35,000 185 396 64
2018-12-15 07:26:01 GMT 49.970535 -6.374817 35,000 185 396 0
2018-12-15 07:25:57 GMT 49.980057 -6.373733 35,000 185 396 0
2018-12-15 07:25:52 GMT 49.988800 -6.372649 35,000 185 396 0
2018-12-15 07:25:45 GMT 50.001205 -6.371203 35,000 185 397 64
2018-12-15 07:25:41 GMT 50.008530 -6.370336 35,000 185 397 0
2018-12-15 07:25:36 GMT 50.017273 -6.369324 35,000 185 397 0
2018-12-15 07:25:32 GMT 50.024986 -6.368433 35,000 185 397 0
2018-12-15 07:25:25 GMT 50.036316 -6.367083 35,000 185 397 0
2018-12-15 07:25:22 GMT 50.044327 -6.366143 35,000 185 397 0
2018-12-15 07:25:16 GMT 50.052780 -6.365167 35,000 185 397 64
2018-12-15 07:25:10 GMT 50.071075 -6.363088 35,000 185 397 64
2018-12-15 07:25:05 GMT 50.074356 -6.362674 35,000 185 398 64
2018-12-15 07:25:00 GMT 50.082413 -6.361734 35,000 185 398 0
2018-12-15 07:24:55 GMT 50.092712 -6.360578 35,000 185 398 0
2018-12-15 07:24:50 GMT 50.101501 -6.359566 35,000 185 398 0
2018-12-15 07:24:45 GMT 50.111023 -6.358410 35,000 185 398 -64
2018-12-15 07:24:39 GMT 50.120934 -6.357298 35,000 185 398 0
2018-12-15 07:24:34 GMT 50.131222 -6.356036 35,000 185 398 64
2018-12-15 07:24:29 GMT 50.140018 -6.354997 35,000 185 398 64
2018-12-15 07:24:24 GMT 50.148815 -6.353958 35,000 185 398 64
2018-12-15 07:24:19 GMT 50.157257 -6.352989 35,000 185 399 64
2018-12-15 07:24:14 GMT 50.167557 -6.351760 35,000 185 399 64
2018-12-15 07:24:10 GMT 50.174881 -6.350893 35,000 185 399 0
2018-12-15 07:24:04 GMT 50.186291 -6.349504 35,000 185 399 0
2018-12-15 07:24:00 GMT 50.194016 -6.348652 35,000 185 399 0
2018-12-15 07:23:54 GMT 50.203934 -6.347425 35,000 185 399 0
2018-12-15 07:23:49 GMT 50.213104 -6.346339 35,000 185 400 0
2018-12-15 07:23:43 GMT 50.224510 -6.345050 35,000 185 400 0
2018-12-15 07:23:40 GMT 50.231552 -6.344243 35,000 185 400 0
2018-12-15 07:23:33 GMT 50.243317 -6.342870 35,000 185 400 64
2018-12-15 07:23:30 GMT 50.248859 -6.342229 35,000 185 400 0
2018-12-15 07:23:19 GMT 50.276882 -6.338889 35,000 185 401 64
2018-12-15 07:23:13 GMT 50.281303 -6.338369 35,000 185 401 64
2018-12-15 07:23:10 GMT 50.286472 -6.337775 35,000 185 401 0
2018-12-15 07:23:02 GMT 50.300484 -6.336142 35,000 185 401 64
2018-12-15 07:22:57 GMT 50.308228 -6.335208 35,000 185 401 64
2018-12-15 07:22:52 GMT 50.318573 -6.333980 35,000 185 401 0
2018-12-15 07:22:47 GMT 50.327065 -6.332950 35,000 185 401 0
2018-12-15 07:22:40 GMT 50.339996 -6.331378 35,000 185 401 64
2018-12-15 07:22:37 GMT 50.346634 -6.330582 35,000 185 401 64
2018-12-15 07:22:31 GMT 50.356979 -6.329281 35,000 185 402 0
2018-12-15 07:22:28 GMT 50.362537 -6.328570 35,000 185 402 0
2018-12-15 07:22:21 GMT 50.376205 -6.326969 35,000 185 402 -64
2018-12-15 07:22:18 GMT 50.381424 -6.326318 35,000 185 402 -64
2018-12-15 07:22:09 GMT 50.397362 -6.324413 35,000 185 402 0
2018-12-15 07:22:06 GMT 50.402893 -6.323788 35,000 185 402 0
2018-12-15 07:22:01 GMT 50.413654 -6.322483 35,000 185 403 0
2018-12-15 07:21:58 GMT 50.419922 -6.321764 35,000 185 403 0
2018-12-15 07:21:50 GMT 50.433289 -6.320247 35,000 185 402 0
2018-12-15 07:21:46 GMT 50.441071 -6.319291 35,000 185 402 0
2018-12-15 07:21:40 GMT 50.451454 -6.318104 35,000 185 402 0
2018-12-15 07:21:37 GMT 50.457733 -6.317356 35,000 185 402 0
2018-12-15 07:21:32 GMT 50.467003 -6.316248 35,000 185 402 0
2018-12-15 07:21:29 GMT 50.474030 -6.315404 35,000 185 403 0
2018-12-15 07:21:25 GMT 50.479618 -6.314689 35,000 185 403 64
2018-12-15 07:21:19 GMT 50.489998 -6.313501 35,000 185 403 64
2018-12-15 07:21:16 GMT 50.495911 -6.312759 35,000 185 403 64
2018-12-15 07:21:08 GMT 50.510761 -6.310977 35,000 185 403 0
2018-12-15 07:21:05 GMT 50.516674 -6.310235 35,000 185 403 0
2018-12-15 07:20:59 GMT 50.527451 -6.308971 35,000 185 403 0
2018-12-15 07:20:56 GMT 50.534500 -6.308157 35,000 185 403 0
2018-12-15 07:20:47 GMT 50.548965 -6.306441 35,000 185 403 64
2018-12-15 07:20:44 GMT 50.555264 -6.305707 35,000 185 403 0
2018-12-15 07:20:38 GMT 50.565647 -6.304445 35,000 185 403 0
2018-12-15 07:20:34 GMT 50.573837 -6.303480 35,000 185 403 0
2018-12-15 07:20:28 GMT 50.584965 -6.302144 35,000 185 403 0
2018-12-15 07:20:25 GMT 50.592041 -6.301237 35,000 185 403 0
2018-12-15 07:20:21 GMT 50.597580 -6.300585 35,000 185 403 0
2018-12-15 07:20:18 GMT 50.603539 -6.299917 35,000 185 403 0
2018-12-15 07:20:14 GMT 50.612091 -6.298852 35,000 185 403 0
2018-12-15 07:20:08 GMT 50.622860 -6.297541 35,000 185 403 0
2018-12-15 07:20:01 GMT 50.635475 -6.295983 35,000 185 404 0
2018-12-15 07:19:58 GMT 50.641068 -6.295311 35,000 185 404 0
2018-12-15 07:19:55 GMT 50.646286 -6.294660 35,000 185 404 0
2018-12-15 07:19:52 GMT 50.651459 -6.294082 35,000 185 404 0
2018-12-15 07:19:46 GMT 50.665604 -6.292347 35,000 185 404 64
2018-12-15 07:19:41 GMT 50.672668 -6.291504 35,000 185 404 0
2018-12-15 07:19:38 GMT 50.678284 -6.290861 35,000 185 404 -64
2018-12-15 07:19:35 GMT 50.683842 -6.290207 35,000 185 404 0
2018-12-15 07:19:32 GMT 50.688675 -6.289673 35,000 185 404 0
2018-12-15 07:19:26 GMT 50.700623 -6.288262 35,000 185 404 64
2018-12-15 07:19:22 GMT 50.707676 -6.287384 35,000 185 404 64
2018-12-15 07:19:16 GMT 50.718803 -6.286011 35,000 185 404 0
2018-12-15 07:19:11 GMT 50.727741 -6.284943 35,000 185 404 0
2018-12-15 07:19:07 GMT 50.736328 -6.283883 35,000 185 404 0
2018-12-15 07:19:04 GMT 50.740768 -6.283363 35,000 185 404 0
2018-12-15 07:19:00 GMT 50.748596 -6.282425 35,000 185 404 64
2018-12-15 07:18:55 GMT 50.773129 -6.279449 35,000 185 404 64
2018-12-15 07:18:47 GMT 50.773129 -6.279449 35,000 185 404 0
2018-12-15 07:18:44 GMT 50.779087 -6.278687 35,000 185 404 0
2018-12-15 07:18:39 GMT 50.786865 -6.277722 35,000 185 404 0
2018-12-15 07:18:36 GMT 50.793938 -6.276855 35,000 185 404 0
2018-12-15 07:18:33 GMT 50.798409 -6.276321 35,000 185 404 0
2018-12-15 07:18:25 GMT 50.813644 -6.274455 35,000 185 404 0
2018-12-15 07:18:22 GMT 50.821106 -6.273565 35,000 185 404 64
2018-12-15 07:18:14 GMT 50.835983 -6.271709 35,000 185 404 64
2018-12-15 07:18:10 GMT 50.841156 -6.271115 35,000 185 404 0
2018-12-15 07:18:06 GMT 50.849709 -6.270065 35,000 185 404 0
2018-12-15 07:18:03 GMT 50.855301 -6.269408 35,000 185 404 0
2018-12-15 07:17:59 GMT 50.862370 -6.268616 35,000 185 404 0
2018-12-15 07:17:53 GMT 50.873886 -6.267181 35,000 185 404 0
2018-12-15 07:17:50 GMT 50.879456 -6.266556 35,000 185 404 0
2018-12-15 07:17:44 GMT 50.890629 -6.265259 35,000 185 403 0
2018-12-15 07:17:40 GMT 50.899887 -6.264137 35,000 185 403 0
2018-12-15 07:17:35 GMT 50.906967 -6.263275 35,000 185 404 0
2018-12-15 07:17:32 GMT 50.912926 -6.262589 35,000 185 404 0
2018-12-15 07:17:29 GMT 50.917007 -6.262133 35,000 185 404 64
2018-12-15 07:17:23 GMT 50.928520 -6.260834 35,000 185 404 0
2018-12-15 07:17:20 GMT 50.935593 -6.259980 35,000 185 404 0
2018-12-15 07:17:16 GMT 50.941135 -6.259384 35,000 185 404 0
2018-12-15 07:17:12 GMT 50.950817 -6.258240 35,000 185 404 0
2018-12-15 07:17:05 GMT 50.964970 -6.256714 35,000 185 404 64
2018-12-15 07:16:59 GMT 50.974228 -6.255675 35,000 184 403 0
2018-12-15 07:16:55 GMT 50.981312 -6.254883 35,000 184 403 64
2018-12-15 07:16:51 GMT 50.989105 -6.253967 35,000 184 403 0
2018-12-15 07:16:46 GMT 50.997299 -6.253077 35,000 184 403 64
2018-12-15 07:16:42 GMT 51.005844 -6.252136 35,000 184 403 0
2018-12-15 07:16:39 GMT 51.011803 -6.251526 35,000 184 403 0
2018-12-15 07:16:32 GMT 51.024464 -6.250153 35,000 184 403 0
2018-12-15 07:16:28 GMT 51.031540 -6.249439 35,000 184 403 0
2018-12-15 07:16:24 GMT 51.057632 -6.246618 35,000 185 404 0
2018-12-15 07:16:18 GMT 51.057632 -6.246618 35,000 184 403 64
2018-12-15 07:16:11 GMT 51.063194 -6.246033 35,000 184 403 64
2018-12-15 07:16:08 GMT 51.069157 -6.245346 35,000 185 404 0
2018-12-15 07:16:01 GMT 51.082169 -6.243872 35,000 185 404 0
2018-12-15 07:15:58 GMT 51.087387 -6.243278 35,000 185 404 0
2018-12-15 07:15:50 GMT 51.101532 -6.241496 35,000 185 404 0
2018-12-15 07:15:47 GMT 51.107094 -6.240845 35,000 185 404 0
2018-12-15 07:15:42 GMT 51.134605 -6.237106 35,000 186 403 64
2018-12-15 07:15:36 GMT 51.134605 -6.237106 35,000 186 403 64
2018-12-15 07:15:30 GMT 51.139820 -6.236420 35,000 186 403 64
2018-12-15 07:15:27 GMT 51.144291 -6.235733 35,000 186 403 0
2018-12-15 07:15:22 GMT 51.154671 -6.234207 35,000 186 403 -64
2018-12-15 07:15:16 GMT 51.164703 -6.232663 35,000 186 403 -64
2018-12-15 07:15:12 GMT 51.174736 -6.231079 35,000 186 403 64
2018-12-15 07:15:07 GMT 51.181393 -6.230011 35,000 186 403 64
2018-12-15 07:15:01 GMT 51.192902 -6.228283 35,000 185 405 128
2018-12-15 07:14:57 GMT 51.202202 -6.226883 35,000 185 405 128
2018-12-15 07:14:54 GMT 51.205925 -6.226349 35,000 185 405 128
2018-12-15 07:14:51 GMT 51.211140 -6.225739 34,975 185 406 64
2018-12-15 07:14:48 GMT 51.217144 -6.224976 35,000 185 406 0
2018-12-15 07:14:45 GMT 51.224594 -6.224060 35,000 185 406 0
2018-12-15 07:14:41 GMT 51.236557 -6.222610 35,000 185 406 0
2018-12-15 07:14:38 GMT 51.236557 -6.222610 35,000 185 406 0
2018-12-15 07:14:30 GMT 51.250801 -6.220856 35,000 185 406 0
2018-12-15 07:14:27 GMT 51.256393 -6.220192 35,000 185 406 0
2018-12-15 07:14:24 GMT 51.262390 -6.219449 35,000 185 406 0
2018-12-15 07:14:20 GMT 51.269119 -6.218633 35,000 185 406 0
2018-12-15 07:14:15 GMT 51.279942 -6.217270 35,000 185 406 64
2018-12-15 07:14:11 GMT 51.287796 -6.216332 35,000 185 406 0
2018-12-15 07:14:08 GMT 51.291164 -6.215897 35,000 185 406 64
2018-12-15 07:14:05 GMT 51.297913 -6.215057 35,000 185 406 64
2018-12-15 07:13:59 GMT 51.308762 -6.213734 35,000 185 407 -64
2018-12-15 07:13:55 GMT 51.315536 -6.212843 35,000 185 407 -64
2018-12-15 07:13:50 GMT 51.326355 -6.211548 35,000 185 407 -64
2018-12-15 07:13:44 GMT 51.343578 -6.209335 35,000 185 406 0
2018-12-15 07:13:38 GMT 51.348450 -6.208760 35,000 185 406 0
2018-12-15 07:13:34 GMT 51.356689 -6.207721 35,000 185 407 64
2018-12-15 07:13:31 GMT 51.361549 -6.207123 35,000 185 407 64
2018-12-15 07:13:28 GMT 51.367905 -6.206310 35,000 185 407 64
2018-12-15 07:13:25 GMT 51.377285 -6.205139 35,000 185 407 64
2018-12-15 07:13:18 GMT 51.386673 -6.203935 35,000 185 407 0
2018-12-15 07:13:15 GMT 51.394180 -6.202970 35,000 185 407 -128
2018-12-15 07:13:10 GMT 51.401688 -6.202079 35,000 185 407 -128
2018-12-15 07:13:07 GMT 51.406174 -6.201485 35,000 185 407 64
2018-12-15 07:13:04 GMT 51.412903 -6.200669 35,000 185 407 576
2018-12-15 07:12:58 GMT 51.423790 -6.199341 34,950 185 406 960
2018-12-15 07:12:55 GMT 51.429382 -6.198590 34,850 185 406 960
2018-12-15 07:12:51 GMT 51.438354 -6.197551 34,825 185 406 960
2018-12-15 07:12:48 GMT 51.440968 -6.197205 34,725 185 406 960
2018-12-15 07:12:45 GMT 51.449570 -6.196141 34,725 185 406 960
2018-12-15 07:12:42 GMT 51.453278 -6.195695 34,700 185 406 960
2018-12-15 07:12:39 GMT 51.464104 -6.194305 34,600 185 406 960
2018-12-15 07:12:33 GMT 51.470490 -6.193542 34,550 185 405 960
2018-12-15 07:12:30 GMT 51.476440 -6.192800 34,500 185 405 960
2018-12-15 07:12:27 GMT 51.481659 -6.192132 34,450 185 405 960
2018-12-15 07:12:23 GMT 51.490631 -6.191019 34,375 185 405 960
2018-12-15 07:12:19 GMT 51.495117 -6.190499 34,350 185 405 960
2018-12-15 07:12:16 GMT 51.501801 -6.189608 34,275 185 405 896
2018-12-15 07:12:10 GMT 51.514481 -6.188049 34,175 185 405 832
2018-12-15 07:12:06 GMT 51.520061 -6.187363 34,150 185 404 896
2018-12-15 07:12:01 GMT 51.529743 -6.186142 34,050 185 404 960
2018-12-15 07:11:58 GMT 51.536087 -6.185303 34,000 185 404 960
2018-12-15 07:11:55 GMT 51.541660 -6.184616 33,950 185 404 1024
2018-12-15 07:11:52 GMT 51.547211 -6.183967 33,925 185 404 1024
2018-12-15 07:11:48 GMT 51.553940 -6.183076 33,850 185 404 1024
2018-12-15 07:11:45 GMT 51.559891 -6.182333 33,800 185 404 1024
2018-12-15 07:11:41 GMT 51.566193 -6.181564 33,750 185 404 1024
2018-12-15 07:11:38 GMT 51.572479 -6.180775 33,700 185 404 1088
2018-12-15 07:11:35 GMT 51.578064 -6.180038 33,625 185 404 1088
2018-12-15 07:11:31 GMT 51.585114 -6.179141 33,500 185 404 1088
2018-12-15 07:11:28 GMT 51.591473 -6.178360 33,525 185 404 1088
2018-12-15 07:11:25 GMT 51.596638 -6.177750 33,350 185 404 1216
2018-12-15 07:11:21 GMT 51.603699 -6.176840 33,375 185 404 1216
2018-12-15 07:11:18 GMT 51.609650 -6.176172 33,300 185 404 1280
2018-12-15 07:11:15 GMT 51.616005 -6.175385 33,225 185 404 1344
2018-12-15 07:11:10 GMT 51.624897 -6.174240 33,050 175 416 0
2018-12-15 07:11:06 GMT 51.631645 -6.173401 33,050 185 405 768
2018-12-15 07:11:03 GMT 51.644306 -6.171799 33,000 185 405 384
2018-12-15 07:10:59 GMT 51.644306 -6.171799 33,000 185 405 64
2018-12-15 07:10:56 GMT 51.651398 -6.170902 33,000 185 405 0
2018-12-15 07:10:53 GMT 51.655479 -6.170425 33,000 185 405 64
2018-12-15 07:10:50 GMT 51.661835 -6.169566 33,000 185 405 64
2018-12-15 07:10:47 GMT 51.666698 -6.168976 33,000 185 405 64
2018-12-15 07:10:44 GMT 51.673050 -6.168155 33,000 184 406 0
2018-12-15 07:10:39 GMT 51.682343 -6.166916 33,000 184 406 0
2018-12-15 07:10:36 GMT 51.689835 -6.166000 33,000 184 407 0
2018-12-15 07:10:28 GMT 51.712875 -6.165112 33,000 181 410 64
2018-12-15 07:10:23 GMT 51.712875 -6.165112 33,000 179 411 64
2018-12-15 07:10:20 GMT 51.718231 -6.165334 33,000 177 414 64
2018-12-15 07:10:17 GMT 51.725449 -6.165848 33,000 176 414 64
2018-12-15 07:10:13 GMT 51.731594 -6.166534 33,000 173 418 0
2018-12-15 07:10:10 GMT 51.736946 -6.167374 33,000 172 420 0
2018-12-15 07:10:07 GMT 51.742348 -6.168289 33,000 170 421 0
2018-12-15 07:10:02 GMT 51.752701 -6.170679 33,000 170 421 0
2018-12-15 07:09:58 GMT 51.760780 -6.173019 33,000 168 424 0
2018-12-15 07:09:55 GMT 51.767670 -6.175308 33,000 168 424 0
2018-12-15 07:09:51 GMT 51.774170 -6.177583 33,000 168 425 0
2018-12-15 07:09:48 GMT 51.781498 -6.180038 33,000 168 425 0
2018-12-15 07:09:45 GMT 51.787216 -6.182037 33,000 168 425 0
2018-12-15 07:09:42 GMT 51.791061 -6.183373 33,000 168 425 64
2018-12-15 07:09:39 GMT 51.797195 -6.185451 33,000 168 425 64
2018-12-15 07:09:36 GMT 51.802959 -6.187439 33,000 168 425 64
2018-12-15 07:09:33 GMT 51.816784 -6.192169 33,000 168 425 64
2018-12-15 07:09:29 GMT 51.816784 -6.192169 33,000 168 425 192
2018-12-15 07:09:26 GMT 51.820221 -6.193320 32,375 167 423 1216
2018-12-15 07:09:21 GMT 51.830978 -6.197031 33,000 168 425 0
2018-12-15 07:09:17 GMT 51.838669 -6.199630 33,000 168 425 0
2018-12-15 07:09:14 GMT 51.845581 -6.202005 33,000 168 424 320
2018-12-15 07:09:11 GMT 51.850582 -6.203690 32,975 168 424 832
2018-12-15 07:09:08 GMT 51.857071 -6.205939 32,950 167 423 1088
2018-12-15 07:09:05 GMT 51.860916 -6.207275 32,900 167 423 1216
2018-12-15 07:09:02 GMT 51.869293 -6.210170 32,850 167 423 1280
2018-12-15 07:08:59 GMT 51.873871 -6.211729 32,725 167 423 1216
2018-12-15 07:08:56 GMT 51.881165 -6.214218 32,675 167 423 1216
2018-12-15 07:08:52 GMT 51.887650 -6.216480 32,600 167 423 1280
2018-12-15 07:08:45 GMT 51.900650 -6.220932 32,475 167 423 1216
2018-12-15 07:08:42 GMT 51.906399 -6.222892 32,400 167 423 1216
2018-12-15 07:08:36 GMT 51.917103 -6.226658 32,200 169 421 1152
2018-12-15 07:08:31 GMT 51.927067 -6.229797 32,225 169 421 1152
2018-12-15 07:08:28 GMT 51.932831 -6.231384 32,050 171 419 1216
2018-12-15 07:08:25 GMT 51.939743 -6.233063 32,050 172 418 1280
2018-12-15 07:08:22 GMT 51.945099 -6.234131 32,000 173 417 1280
2018-12-15 07:08:19 GMT 51.949318 -6.234898 31,900 174 416 1344
2018-12-15 07:08:16 GMT 51.963097 -6.236782 31,850 179 413 1408
2018-12-15 07:08:13 GMT 51.963097 -6.236782 31,775 176 414 1472
2018-12-15 07:08:10 GMT 51.968033 -6.237259 31,625 177 414 1472
2018-12-15 07:08:07 GMT 51.972656 -6.237564 31,600 179 413 1408
2018-12-15 07:08:04 GMT 51.977573 -6.237723 31,600 179 412 1472
2018-12-15 07:08:00 GMT 51.986748 -6.237723 31,475 182 411 1472
2018-12-15 07:07:57 GMT 51.991261 -6.237566 31,425 182 411 1536
2018-12-15 07:07:54 GMT 51.998104 -6.237331 31,325 182 412 1472
2018-12-15 07:07:51 GMT 52.003052 -6.237106 31,200 182 412 1408
2018-12-15 07:07:48 GMT 52.009510 -6.236860 31,175 182 412 1344
2018-12-15 07:07:44 GMT 52.017097 -6.236546 31,075 182 412 1344
2018-12-15 07:07:41 GMT 52.022049 -6.236343 31,025 182 412 1408
2018-12-15 07:07:38 GMT 52.028503 -6.236075 30,975 182 413 1984
2018-12-15 07:07:35 GMT 52.041447 -6.235526 30,725 182 412 1984
2018-12-15 07:07:26 GMT 52.057892 -6.234894 30,325 182 415 2048
2018-12-15 07:07:20 GMT 52.062904 -6.234663 30,225 182 417 2048
2018-12-15 07:07:14 GMT 52.074051 -6.234207 30,150 182 418 2048
2018-12-15 07:07:11 GMT 52.079849 -6.234035 29,975 182 419 1984
2018-12-15 07:07:08 GMT 52.085632 -6.233826 29,925 182 419 2048
2018-12-15 07:07:05 GMT 52.091080 -6.233597 29,850 182 420 2112
2018-12-15 07:07:02 GMT 52.096889 -6.233407 29,775 182 421 2176
2018-12-15 07:06:58 GMT 52.106598 -6.233063 28,300 182 422 2176
2018-12-15 07:06:55 GMT 52.110107 -6.232936 29,425 182 423 2112
2018-12-15 07:06:52 GMT 52.116714 -6.232681 29,150 182 424 2112
2018-12-15 07:06:49 GMT 52.122585 -6.232465 29,150 182 424 2112
2018-12-15 07:06:46 GMT 52.127701 -6.232300 29,175 182 424 2112
2018-12-15 07:06:43 GMT 52.133572 -6.232073 29,000 182 426 2048
2018-12-15 07:06:40 GMT 52.140244 -6.231842 28,900 182 426 1920
2018-12-15 07:06:37 GMT 52.144958 -6.231689 28,875 182 426 1856
2018-12-15 07:06:33 GMT 52.153217 -6.231367 28,750 182 427 1600
2018-12-15 07:06:30 GMT 52.159550 -6.231131 28,575 182 427 1280
2018-12-15 07:06:27 GMT 52.165833 -6.230896 28,575 182 427 1280
2018-12-15 07:06:23 GMT 52.178833 -6.230392 28,450 182 426 1216
2018-12-15 07:06:20 GMT 52.178833 -6.230392 28,400 182 426 1280
2018-12-15 07:06:17 GMT 52.185524 -6.230190 28,400 182 426 1280
2018-12-15 07:06:14 GMT 52.190598 -6.230011 28,275 182 425 1344
2018-12-15 07:06:10 GMT 52.199249 -6.229630 28,225 182 425 1216
2018-12-15 07:06:06 GMT 52.207077 -6.229324 28,100 182 424 1216
2018-12-15 07:06:03 GMT 52.213348 -6.229095 27,975 182 423 1280
2018-12-15 07:06:00 GMT 52.218796 -6.228790 28,000 182 423 1280
2018-12-15 07:05:57 GMT 52.226257 -6.228542 27,950 182 423 1280
2018-12-15 07:05:52 GMT 52.239899 -6.227951 27,825 182 422 1088
2018-12-15 07:05:49 GMT 52.239899 -6.227951 27,700 182 421 1280
2018-12-15 07:05:45 GMT 52.247253 -6.227679 27,725 182 421 1280
2018-12-15 07:05:41 GMT 52.254639 -6.227341 27,650 182 420 1344
2018-12-15 07:05:38 GMT 52.270531 -6.226737 27,525 182 419 1216
2018-12-15 07:05:34 GMT 52.270531 -6.226737 27,500 182 419 1152
2018-12-15 07:05:31 GMT 52.274002 -6.226654 27,425 182 419 1024
2018-12-15 07:05:28 GMT 52.282909 -6.226266 27,375 182 417 1024
2018-12-15 07:05:24 GMT 52.297119 -6.225739 27,275 182 414 1024
2018-12-15 07:05:16 GMT 52.305908 -6.225324 27,175 182 414 1152
2018-12-15 07:05:12 GMT 52.312054 -6.225089 27,125 182 413 1280
2018-12-15 07:05:08 GMT 52.319641 -6.224775 27,050 182 412 960
2018-12-15 07:05:05 GMT 52.325741 -6.224540 26,975 182 410 1024
2018-12-15 07:05:02 GMT 52.330303 -6.224383 26,950 182 410 1024
2018-12-15 07:04:59 GMT 52.336353 -6.224226 25,100 182 397 1088
2018-12-15 07:04:56 GMT 52.342026 -6.223984 26,800 182 409 768
2018-12-15 07:04:50 GMT 52.352974 -6.223598 26,775 182 407 960
2018-12-15 07:04:47 GMT 52.358978 -6.223363 26,725 182 407 1216
2018-12-15 07:04:44 GMT 52.363861 -6.223221 26,600 182 406 1344
2018-12-15 07:04:40 GMT 52.371368 -6.222916 26,525 182 405 1152
2018-12-15 07:04:36 GMT 52.379974 -6.222656 26,500 182 404 960
2018-12-15 07:04:33 GMT 52.387421 -6.222342 26,425 182 402 1024
2018-12-15 07:04:27 GMT 52.396683 -6.221924 26,325 182 401 1152
2018-12-15 07:04:24 GMT 52.401901 -6.221771 26,275 182 399 1344
2018-12-15 07:04:19 GMT 52.410370 -6.221479 26,175 182 399 1408
2018-12-15 07:04:14 GMT 52.428017 -6.220851 26,000 182 397 1280
2018-12-15 07:04:10 GMT 52.428017 -6.220851 25,925 182 397 1024
2018-12-15 07:04:07 GMT 52.433487 -6.220627 25,900 182 396 1216
2018-12-15 07:04:03 GMT 52.440079 -6.220398 25,875 182 395 1344
2018-12-15 07:03:59 GMT 52.447357 -6.220093 25,700 182 394 1664
2018-12-15 07:03:56 GMT 52.454636 -6.219788 25,600 182 393 1536
2018-12-15 07:03:53 GMT 52.458252 -6.219635 25,550 182 392 1408
2018-12-15 07:03:50 GMT 52.465164 -6.219360 25,450 182 392 1408
2018-12-15 07:03:46 GMT 52.472031 -6.219101 25,350 182 390 1536
2018-12-15 07:03:43 GMT 52.477066 -6.218872 25,200 182 389 1600
2018-12-15 07:03:39 GMT 52.484253 -6.218643 25,200 182 389 1600
2018-12-15 07:03:36 GMT 52.488953 -6.218419 25,025 182 388 1216
2018-12-15 07:03:33 GMT 52.495056 -6.218262 24,875 182 387 1152
2018-12-15 07:03:29 GMT 52.501511 -6.217957 24,875 182 386 1024
2018-12-15 07:03:26 GMT 52.514008 -6.217499 24,875 182 386 1024
2018-12-15 07:03:23 GMT 52.514008 -6.217499 24,800 182 384 1216
2018-12-15 07:03:19 GMT 52.520748 -6.217242 24,775 182 382 1344
2018-12-15 07:03:15 GMT 52.527466 -6.216965 24,700 182 383 1344
2018-12-15 07:03:12 GMT 52.532803 -6.216771 24,150 182 382 1344
2018-12-15 07:03:07 GMT 52.541229 -6.216457 24,500 182 381 1024
2018-12-15 07:03:04 GMT 52.546509 -6.216278 24,475 182 380 1024
2018-12-15 07:03:01 GMT 52.551796 -6.216064 24,325 182 378 1728
2018-12-15 07:02:58 GMT 52.557724 -6.215820 24,325 182 378 1728
2018-12-15 07:02:55 GMT 52.562622 -6.215591 24,225 182 377 1664
2018-12-15 07:02:52 GMT 52.568893 -6.215286 23,850 182 372 1856
2018-12-15 07:02:47 GMT 52.577225 -6.214981 23,525 182 372 1856
2018-12-15 07:02:43 GMT 52.583126 -6.214730 23,925 182 376 1536
2018-12-15 07:02:37 GMT 52.593842 -6.214218 23,775 182 374 1536
2018-12-15 07:02:33 GMT 52.600067 -6.213989 23,550 182 373 1856
2018-12-15 07:02:30 GMT 52.604542 -6.213789 23,500 182 372 1856
2018-12-15 07:02:27 GMT 52.620026 -6.213074 23,400 182 372 1920
2018-12-15 07:02:23 GMT 52.620026 -6.213074 23,325 182 372 1856
2018-12-15 07:02:20 GMT 52.622772 -6.212997 23,125 182 371 2240
2018-12-15 07:02:16 GMT 52.629307 -6.212690 23,100 182 371 1984
2018-12-15 07:02:13 GMT 52.635132 -6.212540 23,025 182 371 2048
2018-12-15 07:02:10 GMT 52.638897 -6.212376 22,950 182 371 2176
2018-12-15 07:02:07 GMT 52.646439 -6.212062 22,825 182 371 2240
2018-12-15 07:02:03 GMT 52.652252 -6.211853 22,650 182 371 2304
2018-12-15 07:02:00 GMT 52.657745 -6.211700 22,650 182 371 2304
2018-12-15 07:01:56 GMT 52.663925 -6.211472 22,400 182 371 2240
2018-12-15 07:01:53 GMT 52.669762 -6.211278 22,325 182 371 2304
2018-12-15 07:01:50 GMT 52.674557 -6.211042 22,075 182 372 2304
2018-12-15 07:01:47 GMT 52.681778 -6.210785 22,075 182 372 2176
2018-12-15 07:01:44 GMT 52.684841 -6.210728 21,950 182 372 2368
2018-12-15 07:01:41 GMT 52.690338 -6.210493 21,875 182 372 2304
2018-12-15 07:01:38 GMT 52.695129 -6.210336 21,775 182 372 2304
2018-12-15 07:01:35 GMT 52.700317 -6.210098 21,475 182 372 2176
2018-12-15 07:01:32 GMT 52.705467 -6.209943 21,500 182 372 2176
2018-12-15 07:01:29 GMT 52.712677 -6.209641 21,400 182 372 2176
2018-12-15 07:01:26 GMT 52.722645 -6.209316 21,250 182 372 2112
2018-12-15 07:01:22 GMT 52.722645 -6.209316 21,200 182 372 1984
2018-12-15 07:01:18 GMT 52.728138 -6.209080 21,125 182 372 1984
2018-12-15 07:01:13 GMT 52.738083 -6.208725 20,850 182 370 2368
2018-12-15 07:01:10 GMT 52.744904 -6.208420 20,725 182 370 2816
2018-12-15 07:01:07 GMT 52.748016 -6.208296 20,675 182 370 2880
2018-12-15 07:01:02 GMT 52.757607 -6.207903 20,425 182 372 2304
2018-12-15 07:00:58 GMT 52.762756 -6.207733 20,225 182 372 2112
2018-12-15 07:00:54 GMT 52.776131 -6.207197 20,075 182 372 2368
2018-12-15 07:00:51 GMT 52.776131 -6.207197 20,025 182 372 2368
2018-12-15 07:00:47 GMT 52.781296 -6.206970 19,900 182 371 2240
2018-12-15 07:00:44 GMT 52.787815 -6.206726 19,725 182 371 2368
2018-12-15 07:00:41 GMT 52.792923 -6.206512 19,650 182 371 2432
2018-12-15 07:00:37 GMT 52.801502 -6.206177 19,450 182 371 2496
2018-12-15 07:00:34 GMT 52.805283 -6.206055 19,325 182 371 2112
2018-12-15 07:00:31 GMT 52.811092 -6.205784 19,225 182 371 1984
2018-12-15 07:00:26 GMT 52.817936 -6.205470 19,100 182 370 1600
2018-12-15 07:00:22 GMT 52.827480 -6.205078 18,975 182 366 832
2018-12-15 07:00:18 GMT 52.832565 -6.204834 18,900 182 364 768
2018-12-15 07:00:10 GMT 52.845680 -6.204293 18,825 182 358 512
2018-12-15 07:00:05 GMT 52.853256 -6.203995 18,775 182 356 576
2018-12-15 07:00:02 GMT 52.859463 -6.203666 18,725 182 351 1024
2018-12-15 06:59:59 GMT 52.862720 -6.203587 18,700 182 350 960
2018-12-15 06:59:55 GMT 52.868866 -6.203308 18,575 182 332 1920
2018-12-15 06:59:50 GMT 52.877476 -6.202959 18,575 182 342 1024
2018-12-15 06:59:45 GMT 52.885670 -6.202645 18,500 182 339 1536
2018-12-15 06:59:42 GMT 52.891861 -6.202410 18,375 182 336 1856
2018-12-15 06:59:35 GMT 52.901173 -6.202018 18,075 182 332 1920
2018-12-15 06:59:30 GMT 52.909180 -6.201704 18,000 182 332 1920
2018-12-15 06:59:25 GMT 52.917091 -6.201390 17,900 182 331 1920
2018-12-15 06:59:22 GMT 52.919559 -6.201311 17,850 182 326 2048
2018-12-15 06:59:19 GMT 52.925053 -6.201076 17,675 182 329 1984
2018-12-15 06:59:14 GMT 52.933525 -6.200762 17,500 182 328 2112
2018-12-15 06:59:10 GMT 52.940788 -6.200448 17,325 182 327 2176
2018-12-15 06:59:05 GMT 52.947098 -6.200256 17,175 182 326 2112
2018-12-15 06:59:02 GMT 52.953140 -6.200027 17,075 182 326 2048
2018-12-15 06:58:59 GMT 52.956161 -6.199951 16,800 182 324 2176
2018-12-15 06:58:55 GMT 52.962158 -6.199722 16,850 182 324 2240
2018-12-15 06:58:52 GMT 52.967834 -6.199506 16,675 182 323 2112
2018-12-15 06:58:48 GMT 52.972321 -6.199341 16,575 182 323 2112
2018-12-15 06:58:44 GMT 52.978588 -6.199114 16,250 182 320 2304
2018-12-15 06:58:41 GMT 52.983627 -6.198959 16,250 182 321 2368
2018-12-15 06:58:38 GMT 52.986874 -6.198879 16,250 182 321 2368
2018-12-15 06:58:34 GMT 52.993393 -6.198643 16,050 182 320 2304
2018-12-15 06:58:30 GMT 52.998138 -6.198486 15,875 182 319 2176
2018-12-15 06:58:27 GMT 53.003769 -6.198273 15,775 182 319 2176
2018-12-15 06:58:24 GMT 53.009033 -6.198120 15,650 182 318 2432
2018-12-15 06:58:21 GMT 53.013153 -6.197968 15,500 182 318 2432
2018-12-15 06:58:17 GMT 53.017551 -6.197780 15,500 182 318 2496
2018-12-15 06:58:13 GMT 53.024323 -6.197433 15,100 182 316 2048
2018-12-15 06:58:09 GMT 53.034496 -6.196917 15,000 182 315 2432
2018-12-15 06:58:02 GMT 53.041481 -6.196603 14,775 182 314 2752
2018-12-15 06:57:58 GMT 53.045837 -6.196365 14,650 182 315 2240
2018-12-15 06:57:54 GMT 53.053120 -6.196054 14,450 182 315 2240
2018-12-15 06:57:51 GMT 53.056870 -6.195984 14,350 182 311 1472
2018-12-15 06:57:48 GMT 53.060394 -6.195831 14,275 182 312 1472
2018-12-15 06:57:43 GMT 53.067596 -6.195583 14,175 182 311 1472
2018-12-15 06:57:40 GMT 53.073322 -6.195347 14,025 182 308 2304
2018-12-15 06:57:37 GMT 53.076416 -6.195145 13,950 181 304 2048
2018-12-15 06:57:32 GMT 53.084682 -6.194720 13,800 182 307 1920
2018-12-15 06:57:27 GMT 53.089462 -6.194611 12,900 181 303 2688
2018-12-15 06:57:23 GMT 53.096741 -6.194406 13,400 181 303 2752
2018-12-15 06:57:20 GMT 53.102093 -6.194270 13,250 182 304 2432
2018-12-15 06:57:14 GMT 53.108551 -6.193856 13,075 183 303 2368
2018-12-15 06:57:10 GMT 53.114136 -6.193542 12,800 182 303 3200
2018-12-15 06:57:06 GMT 53.118896 -6.193300 12,750 182 306 2688
2018-12-15 06:57:01 GMT 53.128189 -6.192915 12,350 182 306 2880
2018-12-15 06:56:58 GMT 53.131577 -6.192836 12,300 182 306 3136
2018-12-15 06:56:54 GMT 53.137516 -6.192573 12,100 182 307 3136
2018-12-15 06:56:51 GMT 53.140640 -6.192444 12,000 182 307 3072
2018-12-15 06:56:48 GMT 53.146034 -6.192250 11,850 182 306 3200
2018-12-15 06:56:45 GMT 53.149109 -6.192051 11,650 182 306 3328
2018-12-15 06:56:42 GMT 53.154190 -6.191816 11,450 182 306 3520
2018-12-15 06:56:39 GMT 53.157578 -6.191659 11,300 182 306 3584
2018-12-15 06:56:35 GMT 53.163540 -6.191442 11,050 182 306 3392
2018-12-15 06:56:30 GMT 53.172272 -6.190953 10,725 182 305 2432
2018-12-15 06:56:23 GMT 53.180740 -6.190482 10,500 182 302 2752
2018-12-15 06:56:17 GMT 53.189072 -6.190090 10,200 182 300 3456
2018-12-15 06:56:13 GMT 53.194916 -6.189827 9,950 182 300 3200
2018-12-15 06:56:10 GMT 53.197952 -6.189697 9,850 182 300 2944
2018-12-15 06:56:07 GMT 53.203762 -6.189423 9,725 182 299 2880
2018-12-15 06:56:01 GMT 53.212002 -6.189099 9,350 182 296 2880
2018-12-15 06:55:56 GMT 53.217728 -6.188834 9,225 182 295 2816
2018-12-15 06:55:52 GMT 53.226665 -6.188534 8,825 182 293 3264
2018-12-15 06:55:46 GMT 53.231506 -6.188372 8,625 181 292 3264
2018-12-15 06:55:42 GMT 53.237732 -6.188206 8,375 181 292 2944
2018-12-15 06:55:36 GMT 53.244736 -6.188128 8,175 181 289 2752
2018-12-15 06:55:29 GMT 53.253571 -6.188049 7,850 181 289 2688
2018-12-15 06:55:26 GMT 53.258652 -6.187971 7,675 181 287 2560
2018-12-15 06:55:20 GMT 53.266571 -6.187892 7,425 181 285 3008
2018-12-15 06:55:14 GMT 53.273438 -6.187814 7,150 181 284 2624
2018-12-15 06:55:09 GMT 53.280212 -6.187578 6,975 183 279 1088
2018-12-15 06:55:05 GMT 53.285648 -6.187161 6,900 184 273 1216
2018-12-15 06:54:58 GMT 53.293606 -6.186353 6,775 185 264 1152
2018-12-15 06:54:54 GMT 53.298447 -6.185707 6,700 185 258 960
2018-12-15 06:54:49 GMT 53.305252 -6.184832 6,625 185 248 960
2018-12-15 06:54:44 GMT 53.309994 -6.184172 6,525 186 242 1792
2018-12-15 06:54:38 GMT 53.316650 -6.183202 6,350 185 237 2880
2018-12-15 06:54:34 GMT 53.321228 -6.182870 6,100 179 236 3392
2018-12-15 06:54:27 GMT 53.328846 -6.183929 5,725 163 236 2432
2018-12-15 06:54:24 GMT 53.332245 -6.185141 5,575 164 235 2432
2018-12-15 06:54:20 GMT 53.337021 -6.187735 5,400 160 233 2688
2018-12-15 06:54:17 GMT 53.339035 -6.188913 5,300 160 231 2688
2018-12-15 06:54:14 GMT 53.342651 -6.191110 5,150 159 228 2432
2018-12-15 06:54:08 GMT 53.348724 -6.194916 4,925 159 222 2112
2018-12-15 06:54:04 GMT 53.352543 -6.197339 4,775 158 217 1792
2018-12-15 06:53:58 GMT 53.358082 -6.200974 4,650 157 210 1152
2018-12-15 06:53:53 GMT 53.361740 -6.203744 4,550 153 201 768
2018-12-15 06:53:48 GMT 53.366695 -6.208164 4,475 150 188 1152
2018-12-15 06:53:43 GMT 53.369953 -6.211234 4,350 151 180 2048
2018-12-15 06:53:37 GMT 53.374466 -6.215123 4,075 153 175 3456
2018-12-15 06:53:33 GMT 53.376938 -6.217131 3,825 155 176 4160
2018-12-15 06:53:28 GMT 53.384850 -6.222786 3,225 157 179 1792
2018-12-15 06:53:23 GMT 53.384850 -6.222786 3,225 157 180 1984
2018-12-15 06:53:19 GMT 53.388611 -6.225560 3,050 156 175 1216
2018-12-15 06:53:12 GMT 53.392578 -6.228440 2,975 155 166 832
2018-12-15 06:53:07 GMT 53.396484 -6.231524 2,900 155 153 832
2018-12-15 06:53:02 GMT 53.399323 -6.233643 2,825 155 147 832
2018-12-15 06:52:56 GMT 53.403282 -6.236680 2,725 154 135 1600
2018-12-15 06:52:52 GMT 53.405285 -6.238296 2,600 154 132 2304

Making use of Plane Finder data

You are free to use the raw flight data, aircraft information and images provided in this report for your own purposes provided the data is correctly attributed to Plane Finder. We ask that you please credit Plane Finder and link to planefinder.net in close proximity to the content.

Optionally one of the following logos (no smaller then 150x24px) can be used and must link to planefinder.net

Embedding the Plane Finder map

You are welcome to embed the Plane Finder playback map on your website to offer visitors a more interactive experience. We suggest using the following HTML code:

<iframe src="//planefinder.net/data/report/FR7124-EI-EMB-7700-squawk-2018-12-15/map" width="800" height="600" seamless="seamless"></iframe>

Where our data comes from

Plane Finder has a global network of data feeds and antenna radars that receive data broadcast directly from aircraft. The primary technologies used are ADS-B and MLAT. We also show feeds from the FAA and a FLARM glider feed.

Click here to find out more about the Plane Finder network.

How we collect our data